Observation data for Van Horn on 04/08/2021      Previous  Date  Next       Current Mesonet Observations  Soil Data  Daily Summary Page  Observations in Plain Language
KVA1 080500Z 24009KT 15/M17 A2999 RMK A01 T01501165  RH  010%=      5-min Rain = 0
KVA1 080501Z 25009KT 15/M17 A2999 RMK A01 T01531165  RH  010%=      5-min Rain = 0
KVA1 080502Z 25009KT 16/M16 A2999 RMK A01 T01581164  RH  010%=      5-min Rain = 0
KVA1 080503Z 25010KT 16/M16 A2999 RMK A01 T01641162  RH  009%=      5-min Rain = 0
KVA1 080504Z 25010KT 17/M16 A2999 RMK A01 T01701161  RH  009%=      5-min Rain = 0
KVA1 080505Z 26010KT 18/M16 A2999 RMK A01 T01751161  RH  009%=      5-min Rain = 0
KVA1 080506Z 26010KT 18/M16 A2999 RMK A01 T01791162  RH  008%=      5-min Rain = 0
KVA1 080507Z 25010KT 18/M16 A2999 RMK A01 T01811163  RH  008%=      5-min Rain = 0
KVA1 080508Z 25010KT 18/M16 A2999 RMK A01 T01841164  RH  008%=      5-min Rain = 0
KVA1 080509Z 25011KT 19/M16 A2999 RMK A01 T01861164  RH  008%=      5-min Rain = 0
KVA1 080510Z 26010KT 19/M16 A2999 RMK A01 T01881164  RH  008%=      5-min Rain = 0
KVA1 080511Z 25010KT 19/M16 A2999 RMK A01 T01901163  RH  008%=      5-min Rain = 0
KVA1 080512Z 26010KT 19/M16 A2999 RMK A01 T01921163  RH  008%=      5-min Rain = 0
KVA1 080513Z 26010KT 19/M16 A2999 RMK A01 T01931163  RH  008%=      5-min Rain = 0
KVA1 080514Z 26010KT 19/M16 A2999 RMK A01 T01931164  RH  008%=      5-min Rain = 0
KVA1 080515Z 26010KT 19/M17 A2999 RMK A01 T01941165  RH  008%=      5-min Rain = 0
KVA1 080516Z 26011KT 19/M17 A2999 RMK A01 T01941165  RH  008%=      5-min Rain = 0
KVA1 080517Z 25009KT 19/M17 A2999 RMK A01 T01941165  RH  008%=      5-min Rain = 0
KVA1 080518Z 25008KT 19/M17 A2999 RMK A01 T01941165  RH  007%=      5-min Rain = 0
KVA1 080519Z 25008KT 19/M17 A2999 RMK A01 T01941165  RH  007%=      5-min Rain = 0
KVA1 080520Z 25009KT 19/M17 A2999 RMK A01 T01941166  RH  007%=      5-min Rain = 0
KVA1 080521Z 25009KT 19/M17 A2999 RMK A01 T01921166  RH  008%=      5-min Rain = 0
KVA1 080522Z 25009KT 19/M17 A2999 RMK A01 T01911166  RH  008%=      5-min Rain = 0
KVA1 080523Z 25010KT 19/M17 A2999 RMK A01 T01901165  RH  008%=      5-min Rain = 0
KVA1 080524Z 25010KT 19/M17 A2999 RMK A01 T01891166  RH  008%=      5-min Rain = 0
KVA1 080525Z 25010KT 19/M17 A2999 RMK A01 T01891166  RH  008%=      5-min Rain = 0
KVA1 080526Z 26010KT 19/M17 A2999 RMK A01 T01881166  RH  008%=      5-min Rain = 0
KVA1 080527Z 26009KT 19/M17 A2999 RMK A01 T01881165  RH  008%=      5-min Rain = 0
KVA1 080528Z 26010KT 19/M17 A2999 RMK A01 T01881165  RH  008%=      5-min Rain = 0
KVA1 080529Z 26009KT 19/M17 A2999 RMK A01 T01881166  RH  008%=      5-min Rain = 0
KVA1 080530Z 26009KT 19/M17 A2999 RMK A01 T01891166  RH  008%=      5-min Rain = 0
KVA1 080531Z 26009KT 19/M17 A2999 RMK A01 T01901165  RH  008%=      5-min Rain = 0
KVA1 080532Z 26009KT 19/M17 A2999 RMK A01 T01901165  RH  008%=      5-min Rain = 0
KVA1 080533Z 26009KT 19/M17 A2999 RMK A01 T01901165  RH  008%=      5-min Rain = 0
KVA1 080534Z 26009KT 19/M17 A2999 RMK A01 T01891167  RH  008%=      5-min Rain = 0
KVA1 080535Z 26009KT 19/M17 A2999 RMK A01 T01881167  RH  008%=      5-min Rain = 0
KVA1 080536Z 26008KT 19/M17 A2999 RMK A01 T01871167  RH  008%=      5-min Rain = 0
KVA1 080537Z 26008KT 19/M17 A2999 RMK A01 T01861167  RH  008%=      5-min Rain = 0
KVA1 080538Z 26008KT 19/M17 A2999 RMK A01 T01851168  RH  008%=      5-min Rain = 0
KVA1 080539Z 26008KT 18/M17 A2999 RMK A01 T01841167  RH  008%=      5-min Rain = 0
KVA1 080540Z 26008KT 18/M17 A2999 RMK A01 T01841167  RH  008%=      5-min Rain = 0
KVA1 080541Z 26008KT 18/M17 A2999 RMK A01 T01831167  RH  008%=      5-min Rain = 0
KVA1 080542Z 26008KT 18/M17 A2999 RMK A01 T01831168  RH  008%=      5-min Rain = 0
KVA1 080543Z 26009KT 18/M17 A2999 RMK A01 T01831168  RH  008%=      5-min Rain = 0
KVA1 080544Z 26008KT 18/M17 A2999 RMK A01 T01831168  RH  008%=      5-min Rain = 0
KVA1 080545Z 26008KT 18/M17 A2999 RMK A01 T01821168  RH  008%=      5-min Rain = 0
KVA1 080546Z 26008KT 18/M17 A2999 RMK A01 T01811168  RH  008%=      5-min Rain = 0
KVA1 080547Z 26008KT 18/M17 A2999 RMK A01 T01811169  RH  008%=      5-min Rain = 0
KVA1 080548Z 27009KT 18/M17 A2999 RMK A01 T01821168  RH  008%=      5-min Rain = 0
KVA1 080549Z 27008KT 18/M17 A2999 RMK A01 T01821167  RH  008%=      5-min Rain = 0
KVA1 080550Z 27008KT 18/M17 A2999 RMK A01 T01821167  RH  008%=      5-min Rain = 0
KVA1 080551Z 27009KT 18/M17 A2999 RMK A01 T01811169  RH  008%=      5-min Rain = 0
KVA1 080552Z 27009KT 18/M17 A2999 RMK A01 T01801169  RH  008%=      5-min Rain = 0
KVA1 080553Z 27009KT 18/M17 A2999 RMK A01 T01791169  RH  008%=      5-min Rain = 0
KVA1 080554Z 27009KT 18/M17 A2999 RMK A01 T01791169  RH  008%=      5-min Rain = 0
KVA1 080555Z 27009KT 18/M17 A2999 RMK A01 T01781169  RH  008%=      5-min Rain = 0
KVA1 080556Z 27009KT 18/M17 A2999 RMK A01 T01771168  RH  008%=      5-min Rain = 0
KVA1 080557Z 27008KT 18/M17 A2999 RMK A01 T01761169  RH  008%=      5-min Rain = 0
KVA1 080558Z 27008KT 18/M17 A2999 RMK A01 T01751169  RH  008%=      5-min Rain = 0
KVA1 080559Z 27008KT 17/M17 A2999 RMK A01 T01741170  RH  008%=      5-min Rain = 0
KVA1 080600Z 27009KT 17/M17 A2999 RMK A01 T01731170  RH  008%=      5-min Rain = 0
KVA1 080601Z 27008KT 17/M17 A2999 RMK A01 T01731170  RH  008%=      5-min Rain = 0
KVA1 080602Z 27008KT 17/M17 A2999 RMK A01 T01721169  RH  008%=      5-min Rain = 0
KVA1 080603Z 27008KT 17/M17 A2999 RMK A01 T01711170  RH  008%=      5-min Rain = 0
KVA1 080604Z 27008KT 17/M17 A2999 RMK A01 T01711170  RH  008%=      5-min Rain = 0
KVA1 080605Z 26006KT 17/M17 A2999 RMK A01 T01701169  RH  008%=      5-min Rain = 0
KVA1 080606Z 25005KT 17/M17 A2999 RMK A01 T01701169  RH  008%=      5-min Rain = 0
KVA1 080607Z 23005KT 17/M17 A2999 RMK A01 T01671169  RH  009%=      5-min Rain = 0
KVA1 080608Z 24006KT 16/M17 A2999 RMK A01 T01631171  RH  009%=      5-min Rain = 0
KVA1 080609Z 24007KT 16/M17 A2999 RMK A01 T01601171  RH  009%=      5-min Rain = 0
KVA1 080610Z 24007KT 16/M17 A30 RMK A01 T01601170  RH  009%=      5-min Rain = 0
KVA1 080611Z 23006KT 16/M17 A30 RMK A01 T01591170  RH  009%=      5-min Rain = 0
KVA1 080612Z 23007KT 16/M17 A30 RMK A01 T01551171  RH  009%=      5-min Rain = 0
KVA1 080613Z 23008KT 15/M17 A30 RMK A01 T01511170  RH  009%=      5-min Rain = 0
KVA1 080614Z 24008KT 15/M17 A2999 RMK A01 T01491170  RH  010%=      5-min Rain = 0
KVA1 080615Z 24007KT 15/M17 A2999 RMK A01 T01481169  RH  010%=      5-min Rain = 0
KVA1 080616Z 24007KT 15/M17 A2999 RMK A01 T01481168  RH  010%=      5-min Rain = 0
KVA1 080617Z 24006KT 15/M17 A2999 RMK A01 T01481167  RH  010%=      5-min Rain = 0
KVA1 080618Z 24006KT 15/M17 A2999 RMK A01 T01471168  RH  010%=      5-min Rain = 0
KVA1 080619Z 25007KT 14/M17 A2999 RMK A01 T01441168  RH  010%=      5-min Rain = 0
KVA1 080620Z 25006KT 14/M17 A2999 RMK A01 T01421167  RH  010%=      5-min Rain = 0
KVA1 080621Z 25006KT 14/M17 A2999 RMK A01 T01411167  RH  010%=      5-min Rain = 0
KVA1 080622Z 24006KT 14/M17 A2999 RMK A01 T01401166  RH  011%=      5-min Rain = 0
KVA1 080623Z 25007KT 14/M17 A2999 RMK A01 T01391165  RH  011%=      5-min Rain = 0
KVA1 080624Z 25008KT 14/M17 A2999 RMK A01 T01391165  RH  011%=      5-min Rain = 0
KVA1 080625Z 25008KT 14/M17 A2999 RMK A01 T01391166  RH  011%=      5-min Rain = 0
KVA1 080626Z 25008KT 14/M17 A2999 RMK A01 T01401166  RH  010%=      5-min Rain = 0
KVA1 080627Z 25008KT 14/M17 A2999 RMK A01 T01411166  RH  010%=      5-min Rain = 0
KVA1 080628Z 25008KT 14/M17 A2999 RMK A01 T01421167  RH  010%=      5-min Rain = 0
KVA1 080629Z 25007KT 14/M17 A2999 RMK A01 T01431167  RH  010%=      5-min Rain = 0
KVA1 080630Z 25007KT 14/M17 A2999 RMK A01 T01431168  RH  010%=      5-min Rain = 0
KVA1 080631Z 25008KT 14/M17 A2999 RMK A01 T01421168  RH  010%=      5-min Rain = 0
KVA1 080632Z 25007KT 14/M17 A2999 RMK A01 T01431168  RH  010%=      5-min Rain = 0
KVA1 080633Z 24007KT 14/M17 A2999 RMK A01 T01421169  RH  010%=      5-min Rain = 0
KVA1 080634Z 24006KT 14/M17 A2999 RMK A01 T01421169  RH  010%=      5-min Rain = 0
KVA1 080635Z 24006KT 14/M17 A2999 RMK A01 T01411169  RH  010%=      5-min Rain = 0
KVA1 080636Z 23007KT 14/M17 A2999 RMK A01 T01411170  RH  010%=      5-min Rain = 0
KVA1 080637Z 24007KT 14/M17 A2999 RMK A01 T01401170  RH  010%=      5-min Rain = 0
KVA1 080638Z 24007KT 14/M17 A2999 RMK A01 T01381170  RH  010%=      5-min Rain = 0
KVA1 080639Z 24007KT 14/M17 A2999 RMK A01 T01381169  RH  010%=      5-min Rain = 0
KVA1 080640Z 23007KT 14/M17 A2999 RMK A01 T01371169  RH  010%=      5-min Rain = 0
KVA1 080641Z 24007KT 14/M17 A2999 RMK A01 T01371169  RH  010%=      5-min Rain = 0
KVA1 080642Z 24007KT 14/M17 A2999 RMK A01 T01371169  RH  010%=      5-min Rain = 0
KVA1 080643Z 23006KT 14/M17 A2999 RMK A01 T01371169  RH  010%=      5-min Rain = 0
KVA1 080644Z 22007KT 14/M17 A2999 RMK A01 T01361169  RH  011%=      5-min Rain = 0
KVA1 080645Z 22007KT 14/M17 A2999 RMK A01 T01351170  RH  011%=      5-min Rain = 0
KVA1 080646Z 22008KT 13/M17 A2999 RMK A01 T01341170  RH  011%=      5-min Rain = 0
KVA1 080647Z 22007KT 13/M17 A2999 RMK A01 T01341171  RH  011%=      5-min Rain = 0
KVA1 080648Z 22007KT 13/M17 A2999 RMK A01 T01341171  RH  011%=      5-min Rain = 0
KVA1 080649Z 23008KT 13/M17 A2999 RMK A01 T01341170  RH  011%=      5-min Rain = 0
KVA1 080650Z 23007KT 14/M17 A2999 RMK A01 T01351169  RH  011%=      5-min Rain = 0
KVA1 080651Z 23008KT 14/M17 A2999 RMK A01 T01361170  RH  010%=      5-min Rain = 0
KVA1 080652Z 23006KT 14/M17 A2999 RMK A01 T01371170  RH  010%=      5-min Rain = 0
KVA1 080653Z 23007KT 14/M17 A2999 RMK A01 T01371171  RH  010%=      5-min Rain = 0
KVA1 080654Z 24007KT 14/M17 A2999 RMK A01 T01371171  RH  010%=      5-min Rain = 0
KVA1 080655Z 23006KT 14/M17 A2999 RMK A01 T01371171  RH  010%=      5-min Rain = 0
KVA1 080656Z 22007KT 14/M17 A2999 RMK A01 T01361172  RH  010%=      5-min Rain = 0
KVA1 080657Z 23007KT 14/M17 A2999 RMK A01 T01351172  RH  010%=      5-min Rain = 0
KVA1 080658Z 23007KT 14/M17 A2999 RMK A01 T01351172  RH  010%=      5-min Rain = 0
KVA1 080659Z 23007KT 14/M17 A2999 RMK A01 T01351171  RH  010%=      5-min Rain = 0
KVA1 080700Z 24007KT 14/M17 A2999 RMK A01 T01351172  RH  010%=      5-min Rain = 0
KVA1 080701Z 24007KT 14/M17 A2999 RMK A01 T01351172  RH  010%=      5-min Rain = 0
KVA1 080702Z 24007KT 14/M17 A2999 RMK A01 T01351172  RH  010%=      5-min Rain = 0
KVA1 080703Z 23007KT 14/M17 A2999 RMK A01 T01361170  RH  010%=      5-min Rain = 0
KVA1 080704Z 23007KT 14/M17 A2999 RMK A01 T01351171  RH  010%=      5-min Rain = 0
KVA1 080705Z 23007KT 14/M17 A2999 RMK A01 T01351172  RH  010%=      5-min Rain = 0
KVA1 080706Z 23006KT 14/M17 A2999 RMK A01 T01351172  RH  010%=      5-min Rain = 0
KVA1 080707Z 23007KT 14/M17 A2999 RMK A01 T01351171  RH  010%=      5-min Rain = 0
KVA1 080708Z 24006KT 13/M17 A2999 RMK A01 T01341171  RH  010%=      5-min Rain = 0
KVA1 080709Z 23006KT 14/M17 A2999 RMK A01 T01351171  RH  010%=      5-min Rain = 0
KVA1 080710Z 23006KT 14/M17 A2999 RMK A01 T01361171  RH  010%=      5-min Rain = 0
KVA1 080711Z 23006KT 14/M17 A2999 RMK A01 T01361171  RH  010%=      5-min Rain = 0
KVA1 080712Z 22006KT 14/M17 A2999 RMK A01 T01351171  RH  010%=      5-min Rain = 0
KVA1 080713Z 21006KT 13/M17 A2999 RMK A01 T01341171  RH  010%=      5-min Rain = 0
KVA1 080714Z 22007KT 13/M17 A2999 RMK A01 T01331171  RH  010%=      5-min Rain = 0
KVA1 080715Z 21007KT 13/M17 A2999 RMK A01 T01331171  RH  011%=      5-min Rain = 0
KVA1 080716Z 21007KT 13/M17 A2999 RMK A01 T01321171  RH  011%=      5-min Rain = 0
KVA1 080717Z 21006KT 13/M17 A2999 RMK A01 T01331171  RH  011%=      5-min Rain = 0
KVA1 080718Z 21007KT 13/M17 A2999 RMK A01 T01331171  RH  011%=      5-min Rain = 0
KVA1 080719Z 21006KT 14/M17 A2999 RMK A01 T01351170  RH  011%=      5-min Rain = 0
KVA1 080720Z 21007KT 14/M17 A2999 RMK A01 T01371169  RH  010%=      5-min Rain = 0
KVA1 080721Z 21007KT 14/M17 A2999 RMK A01 T01381169  RH  010%=      5-min Rain = 0
KVA1 080722Z 22007KT 14/M17 A2999 RMK A01 T01381169  RH  010%=      5-min Rain = 0
KVA1 080723Z 22007KT 14/M17 A2999 RMK A01 T01381170  RH  010%=      5-min Rain = 0
KVA1 080724Z 22008KT 14/M17 A2999 RMK A01 T01381169  RH  010%=      5-min Rain = 0
KVA1 080725Z 22007KT 14/M17 A2999 RMK A01 T01381170  RH  010%=      5-min Rain = 0
KVA1 080726Z 22007KT 14/M17 A2999 RMK A01 T01381170  RH  010%=      5-min Rain = 0
KVA1 080727Z 23007KT 14/M17 A2999 RMK A01 T01371170  RH  010%=      5-min Rain = 0
KVA1 080728Z 23007KT 14/M17 A2999 RMK A01 T01361171  RH  010%=      5-min Rain = 0
KVA1 080729Z 23007KT 14/M17 A2999 RMK A01 T01351171  RH  010%=      5-min Rain = 0
KVA1 080730Z 22008KT 14/M17 A2999 RMK A01 T01351171  RH  010%=      5-min Rain = 0
KVA1 080731Z 23008KT 14/M17 A2999 RMK A01 T01351171  RH  010%=      5-min Rain = 0
KVA1 080732Z 23008KT 13/M17 A2999 RMK A01 T01341171  RH  010%=      5-min Rain = 0
KVA1 080733Z 22008KT 13/M17 A2999 RMK A01 T01341170  RH  011%=      5-min Rain = 0
KVA1 080734Z 22008KT 13/M17 A2999 RMK A01 T01331170  RH  011%=      5-min Rain = 0
KVA1 080735Z 22008KT 13/M17 A2999 RMK A01 T01321169  RH  011%=      5-min Rain = 0
KVA1 080736Z 22008KT 13/M17 A2999 RMK A01 T01321169  RH  011%=      5-min Rain = 0
KVA1 080737Z 22008KT 13/M17 A2999 RMK A01 T01301170  RH  011%=      5-min Rain = 0
KVA1 080738Z 22008KT 13/M17 A2999 RMK A01 T01291170  RH  011%=      5-min Rain = 0
KVA1 080739Z 21008KT 13/M17 A2999 RMK A01 T01281170  RH  011%=      5-min Rain = 0
KVA1 080740Z 21008KT 13/M17 A2999 RMK A01 T01261170  RH  011%=      5-min Rain = 0
KVA1 080741Z 22009KT 13/M17 A2999 RMK A01 T01251169  RH  011%=      5-min Rain = 0
KVA1 080742Z 22009KT 13/M17 A2999 RMK A01 T01251169  RH  011%=      5-min Rain = 0
KVA1 080743Z 22009KT 13/M17 A2999 RMK A01 T01251169  RH  011%=      5-min Rain = 0
KVA1 080744Z 22009KT 13/M17 A2999 RMK A01 T01251170  RH  011%=      5-min Rain = 0
KVA1 080745Z 22009KT 13/M17 A2999 RMK A01 T01251171  RH  011%=      5-min Rain = 0
KVA1 080746Z 22008KT 13/M17 A2999 RMK A01 T01261171  RH  011%=      5-min Rain = 0
KVA1 080747Z 23008KT 13/M17 A2999 RMK A01 T01261171  RH  011%=      5-min Rain = 0
KVA1 080748Z 23008KT 13/M17 A2999 RMK A01 T01261171  RH  011%=      5-min Rain = 0
KVA1 080749Z 23007KT 13/M17 A2999 RMK A01 T01261171  RH  011%=      5-min Rain = 0
KVA1 080750Z 23008KT 13/M17 A2999 RMK A01 T01261172  RH  011%=      5-min Rain = 0
KVA1 080751Z 23008KT 13/M17 A2999 RMK A01 T01261172  RH  011%=      5-min Rain = 0
KVA1 080752Z 23009KT 13/M17 A2999 RMK A01 T01261171  RH  011%=      5-min Rain = 0
KVA1 080753Z 23008KT 13/M17 A2999 RMK A01 T01251172  RH  011%=      5-min Rain = 0
KVA1 080754Z 22008KT 13/M17 A2999 RMK A01 T01251172  RH  011%=      5-min Rain = 0
KVA1 080755Z 22009KT 12/M17 A2999 RMK A01 T01241171  RH  011%=      5-min Rain = 0
KVA1 080756Z 22009KT 12/M17 A2999 RMK A01 T01241171  RH  011%=      5-min Rain = 0
KVA1 080757Z 22008KT 12/M17 A2999 RMK A01 T01241171  RH  011%=      5-min Rain = 0
KVA1 080758Z 22009KT 13/M17 A2999 RMK A01 T01251170  RH  011%=      5-min Rain = 0
KVA1 080759Z 22010KT 13/M17 A2999 RMK A01 T01251170  RH  011%=      5-min Rain = 0
KVA1 080800Z 22010KT 13/M17 A2999 RMK A01 T01251170  RH  011%=      5-min Rain = 0
KVA1 080801Z 22009KT 13/M17 A2999 RMK A01 T01251170  RH  011%=      5-min Rain = 0
KVA1 080802Z 22009KT 13/M17 A2999 RMK A01 T01251170  RH  011%=      5-min Rain = 0
KVA1 080803Z 22009KT 13/M17 A2998 RMK A01 T01251170  RH  011%=      5-min Rain = 0
KVA1 080804Z 22010KT 13/M17 A2998 RMK A01 T01251169  RH  011%=      5-min Rain = 0
KVA1 080805Z 22010KT 13/M17 A2998 RMK A01 T01251168  RH  011%=      5-min Rain = 0
KVA1 080806Z 22010KT 13/M17 A2998 RMK A01 T01251168  RH  011%=      5-min Rain = 0
KVA1 080807Z 22010KT 13/M17 A2998 RMK A01 T01251169  RH  011%=      5-min Rain = 0
KVA1 080808Z 23010KT 13/M17 A2998 RMK A01 T01251169  RH  011%=      5-min Rain = 0
KVA1 080809Z 23010KT 12/M17 A2998 RMK A01 T01241170  RH  011%=      5-min Rain = 0
KVA1 080810Z 23010KT 13/M17 A2998 RMK A01 T01251169  RH  011%=      5-min Rain = 0
KVA1 080811Z 22010KT 13/M17 A2998 RMK A01 T01251169  RH  011%=      5-min Rain = 0
KVA1 080812Z 23010KT 13/M17 A2998 RMK A01 T01251169  RH  011%=      5-min Rain = 0
KVA1 080813Z 23008KT 13/M17 A2998 RMK A01 T01251169  RH  011%=      5-min Rain = 0
KVA1 080814Z 23009KT 13/M17 A2998 RMK A01 T01251169  RH  011%=      5-min Rain = 0
KVA1 080815Z 23008KT 13/M17 A2998 RMK A01 T01251169  RH  011%=      5-min Rain = 0
KVA1 080816Z 23009KT 13/M17 A2998 RMK A01 T01251169  RH  011%=      5-min Rain = 0
KVA1 080817Z 23009KT 13/M17 A2998 RMK A01 T01251168  RH  011%=      5-min Rain = 0
KVA1 080818Z 23009KT 13/M17 A2998 RMK A01 T01251168  RH  011%=      5-min Rain = 0
KVA1 080819Z 23010KT 13/M17 A2998 RMK A01 T01251169  RH  011%=      5-min Rain = 0
KVA1 080820Z 22010KT 13/M17 A2998 RMK A01 T01251168  RH  011%=      5-min Rain = 0
KVA1 080821Z 22010KT 13/M17 A2998 RMK A01 T01251168  RH  011%=      5-min Rain = 0
KVA1 080822Z 22010KT 13/M17 A2998 RMK A01 T01251168  RH  011%=      5-min Rain = 0
KVA1 080823Z 22009KT 13/M17 A2998 RMK A01 T01261167  RH  011%=      5-min Rain = 0
KVA1 080824Z 22009KT 13/M17 A2998 RMK A01 T01261167  RH  011%=      5-min Rain = 0
KVA1 080825Z 22010KT 13/M17 A2998 RMK A01 T01251166  RH  012%=      5-min Rain = 0
KVA1 080826Z 22010KT 13/M17 A2998 RMK A01 T01251167  RH  011%=      5-min Rain = 0
KVA1 080827Z 23010KT 13/M17 A2998 RMK A01 T01251167  RH  011%=      5-min Rain = 0
KVA1 080828Z 22009KT 13/M17 A2998 RMK A01 T01251167  RH  012%=      5-min Rain = 0
KVA1 080829Z 23009KT 12/M17 A2998 RMK A01 T01241167  RH  012%=      5-min Rain = 0
KVA1 080830Z 23007KT 12/M17 A2998 RMK A01 T01241167  RH  012%=      5-min Rain = 0
KVA1 080831Z 23008KT 12/M17 A2998 RMK A01 T01231167  RH  012%=      5-min Rain = 0
KVA1 080832Z 24008KT 12/M17 A2998 RMK A01 T01231167  RH  012%=      5-min Rain = 0
KVA1 080833Z 23007KT 12/M17 A2998 RMK A01 T01231167  RH  012%=      5-min Rain = 0
KVA1 080834Z 23008KT 12/M17 A2998 RMK A01 T01221167  RH  012%=      5-min Rain = 0
KVA1 080835Z 23009KT 12/M17 A2998 RMK A01 T01221167  RH  012%=      5-min Rain = 0
KVA1 080836Z 23009KT 12/M17 A2998 RMK A01 T01231166  RH  012%=      5-min Rain = 0
KVA1 080837Z 23009KT 12/M17 A2998 RMK A01 T01231166  RH  012%=      5-min Rain = 0
KVA1 080838Z 23008KT 12/M17 A2998 RMK A01 T01221167  RH  012%=      5-min Rain = 0
KVA1 080839Z 22009KT 12/M17 A2998 RMK A01 T01221167  RH  012%=      5-min Rain = 0
KVA1 080840Z 22009KT 12/M17 A2998 RMK A01 T01221168  RH  012%=      5-min Rain = 0
KVA1 080841Z 22009KT 12/M17 A2998 RMK A01 T01221168  RH  012%=      5-min Rain = 0
KVA1 080842Z 22009KT 12/M17 A2998 RMK A01 T01221167  RH  012%=      5-min Rain = 0
KVA1 080843Z 22009KT 12/M17 A2998 RMK A01 T01221167  RH  012%=      5-min Rain = 0
KVA1 080844Z 22008KT 12/M17 A2998 RMK A01 T01221167  RH  012%=      5-min Rain = 0
KVA1 080845Z 22009KT 12/M17 A2998 RMK A01 T01211167  RH  012%=      5-min Rain = 0
KVA1 080846Z 22009KT 12/M17 A2998 RMK A01 T01211167  RH  012%=      5-min Rain = 0
KVA1 080847Z 22009KT 12/M17 A2998 RMK A01 T01211167  RH  012%=      5-min Rain = 0
KVA1 080848Z 22009KT 12/M17 A2998 RMK A01 T01211167  RH  012%=      5-min Rain = 0
KVA1 080849Z 22008KT 12/M17 A2998 RMK A01 T01211167  RH  012%=      5-min Rain = 0
KVA1 080850Z 22009KT 12/M17 A2998 RMK A01 T01201167  RH  012%=      5-min Rain = 0
KVA1 080851Z 22008KT 12/M17 A2998 RMK A01 T01191168  RH  012%=      5-min Rain = 0
KVA1 080852Z 22009KT 12/M17 A2998 RMK A01 T01191168  RH  012%=      5-min Rain = 0
KVA1 080853Z 22009KT 12/M17 A2998 RMK A01 T01191167  RH  012%=      5-min Rain = 0
KVA1 080854Z 22009KT 12/M17 A2998 RMK A01 T01181167  RH  012%=      5-min Rain = 0
KVA1 080855Z 22008KT 12/M17 A2998 RMK A01 T01181168  RH  012%=      5-min Rain = 0
KVA1 080856Z 22008KT 12/M17 A2997 RMK A01 T01171168  RH  012%=      5-min Rain = 0
KVA1 080857Z 21007KT 12/M17 A2997 RMK A01 T01171168  RH  012%=      5-min Rain = 0
KVA1 080858Z 22008KT 12/M17 A2997 RMK A01 T01161168  RH  012%=      5-min Rain = 0
KVA1 080859Z 22007KT 12/M17 A2997 RMK A01 T01161168  RH  012%=      5-min Rain = 0
KVA1 080900Z 22009KT 12/M17 A2998 RMK A01 T01151168  RH  012%=      5-min Rain = 0
KVA1 080901Z 22008KT 12/M17 A2997 RMK A01 T01151168  RH  012%=      5-min Rain = 0
KVA1 080902Z 22009KT 12/M17 A2997 RMK A01 T01151168  RH  012%=      5-min Rain = 0
KVA1 080903Z 22009KT 11/M17 A2997 RMK A01 T01141168  RH  012%=      5-min Rain = 0
KVA1 080904Z 22008KT 11/M17 A2997 RMK A01 T01141168  RH  012%=      5-min Rain = 0
KVA1 080905Z 23008KT 11/M17 A2997 RMK A01 T01131169  RH  012%=      5-min Rain = 0
KVA1 080906Z 23008KT 11/M17 A2997 RMK A01 T01131169  RH  012%=      5-min Rain = 0
KVA1 080907Z 23008KT 11/M17 A2997 RMK A01 T01121169  RH  012%=      5-min Rain = 0
KVA1 080908Z 22007KT 11/M17 A2997 RMK A01 T01121169  RH  012%=      5-min Rain = 0
KVA1 080909Z 23007KT 11/M17 A2997 RMK A01 T01111169  RH  012%=      5-min Rain = 0
KVA1 080910Z 23006KT 11/M17 A2997 RMK A01 T01111169  RH  012%=      5-min Rain = 0
KVA1 080911Z 24006KT 11/M17 A2997 RMK A01 T01101169  RH  012%=      5-min Rain = 0
KVA1 080912Z 24006KT 11/M17 A2997 RMK A01 T01091170  RH  012%=      5-min Rain = 0
KVA1 080913Z 24006KT 11/M17 A2997 RMK A01 T01081170  RH  013%=      5-min Rain = 0
KVA1 080914Z 23007KT 11/M17 A2997 RMK A01 T01081169  RH  013%=      5-min Rain = 0
KVA1 080915Z 22008KT 11/M17 A2997 RMK A01 T01071169  RH  013%=      5-min Rain = 0
KVA1 080916Z 22008KT 11/M17 A2997 RMK A01 T01071168  RH  013%=      5-min Rain = 0
KVA1 080917Z 21008KT 11/M17 A2997 RMK A01 T01081168  RH  013%=      5-min Rain = 0
KVA1 080918Z 21008KT 11/M17 A2997 RMK A01 T01081169  RH  013%=      5-min Rain = 0
KVA1 080919Z 21008KT 11/M17 A2997 RMK A01 T01091169  RH  013%=      5-min Rain = 0
KVA1 080920Z 21008KT 11/M17 A2997 RMK A01 T01091169  RH  013%=      5-min Rain = 0
KVA1 080921Z 21008KT 11/M17 A2997 RMK A01 T01101169  RH  012%=      5-min Rain = 0
KVA1 080922Z 21008KT 11/M17 A2997 RMK A01 T01101169  RH  012%=      5-min Rain = 0
KVA1 080923Z 21008KT 11/M17 A2997 RMK A01 T01111169  RH  012%=      5-min Rain = 0
KVA1 080924Z 20008KT 11/M17 A2997 RMK A01 T01111168  RH  012%=      5-min Rain = 0
KVA1 080925Z 20008KT 11/M17 A2997 RMK A01 T01111169  RH  012%=      5-min Rain = 0
KVA1 080926Z 21008KT 11/M17 A2997 RMK A01 T01111169  RH  012%=      5-min Rain = 0
KVA1 080927Z 20009KT 11/M17 A2997 RMK A01 T01111169  RH  012%=      5-min Rain = 0
KVA1 080928Z 20009KT 11/M17 A2997 RMK A01 T01111169  RH  012%=      5-min Rain = 0
KVA1 080929Z 20009KT 11/M17 A2997 RMK A01 T01101170  RH  012%=      5-min Rain = 0
KVA1 080930Z 20009KT 11/M17 A2997 RMK A01 T01101169  RH  012%=      5-min Rain = 0
KVA1 080931Z 20009KT 11/M17 A2997 RMK A01 T01101169  RH  012%=      5-min Rain = 0
KVA1 080932Z 20008KT 11/M17 A2997 RMK A01 T01101169  RH  012%=      5-min Rain = 0
KVA1 080933Z 20008KT 11/M17 A2997 RMK A01 T01101169  RH  012%=      5-min Rain = 0
KVA1 080934Z 20009KT 11/M17 A2997 RMK A01 T01101168  RH  012%=      5-min Rain = 0
KVA1 080935Z 20008KT 11/M17 A2997 RMK A01 T01101168  RH  013%=      5-min Rain = 0
KVA1 080936Z 20009KT 11/M17 A2997 RMK A01 T01091169  RH  013%=      5-min Rain = 0
KVA1 080937Z 20008KT 11/M17 A2997 RMK A01 T01091169  RH  012%=      5-min Rain = 0
KVA1 080938Z 20008KT 11/M17 A2997 RMK A01 T01091170  RH  013%=      5-min Rain = 0
KVA1 080939Z 20008KT 11/M17 A2997 RMK A01 T01091169  RH  013%=      5-min Rain = 0
KVA1 080940Z 20009KT 11/M17 A2997 RMK A01 T01091169  RH  013%=      5-min Rain = 0
KVA1 080941Z 20009KT 11/M17 A2997 RMK A01 T01091169  RH  013%=      5-min Rain = 0
KVA1 080942Z 20009KT 11/M17 A2997 RMK A01 T01091169  RH  013%=      5-min Rain = 0
KVA1 080943Z 20009KT 11/M17 A2997 RMK A01 T01091169  RH  013%=      5-min Rain = 0
KVA1 080944Z 20008KT 11/M17 A2997 RMK A01 T01091169  RH  013%=      5-min Rain = 0
KVA1 080945Z 21008KT 11/M17 A2997 RMK A01 T01091169  RH  013%=      5-min Rain = 0
KVA1 080946Z 21008KT 11/M17 A2997 RMK A01 T01091169  RH  013%=      5-min Rain = 0
KVA1 080947Z 20008KT 11/M17 A2997 RMK A01 T01081169  RH  013%=      5-min Rain = 0
KVA1 080948Z 21007KT 11/M17 A2997 RMK A01 T01081169  RH  013%=      5-min Rain = 0
KVA1 080949Z 20007KT 11/M17 A2997 RMK A01 T01081169  RH  013%=      5-min Rain = 0
KVA1 080950Z 21007KT 11/M17 A2997 RMK A01 T01081169  RH  013%=      5-min Rain = 0
KVA1 080951Z 21007KT 11/M17 A2997 RMK A01 T01071169  RH  013%=      5-min Rain = 0
KVA1 080952Z 22007KT 11/M17 A2997 RMK A01 T01071170  RH  013%=      5-min Rain = 0
KVA1 080953Z 22007KT 11/M17 A2997 RMK A01 T01061171  RH  013%=      5-min Rain = 0
KVA1 080954Z 21007KT 11/M17 A2997 RMK A01 T01061171  RH  013%=      5-min Rain = 0
KVA1 080955Z 22006KT 11/M17 A2997 RMK A01 T01061171  RH  013%=      5-min Rain = 0
KVA1 080956Z 23006KT 11/M17 A2997 RMK A01 T01051172  RH  013%=      5-min Rain = 0
KVA1 080957Z 23006KT 11/M17 A2997 RMK A01 T01051173  RH  013%=      5-min Rain = 0
KVA1 080958Z 23007KT 10/M17 A2997 RMK A01 T01041174  RH  013%=      5-min Rain = 0
KVA1 080959Z 23007KT 10/M17 A2997 RMK A01 T01031174  RH  013%=      5-min Rain = 0
KVA1 081000Z 23007KT 10/M18 A2997 RMK A01 T01031175  RH  012%=      5-min Rain = 0
KVA1 081001Z 22008KT 10/M18 A2996 RMK A01 T01031175  RH  012%=      5-min Rain = 0
KVA1 081002Z 23008KT 10/M18 A2996 RMK A01 T01021176  RH  012%=      5-min Rain = 0
KVA1 081003Z 22009KT 10/M18 A2996 RMK A01 T01031175  RH  012%=      5-min Rain = 0
KVA1 081004Z 22009KT 10/M18 A2996 RMK A01 T01031175  RH  012%=      5-min Rain = 0
KVA1 081005Z 22009KT 10/M18 A2996 RMK A01 T01031175  RH  012%=      5-min Rain = 0
KVA1 081006Z 22009KT 10/M18 A2996 RMK A01 T01031175  RH  012%=      5-min Rain = 0
KVA1 081007Z 22009KT 10/M17 A2996 RMK A01 T01041174  RH  012%=      5-min Rain = 0
KVA1 081008Z 22008KT 10/M17 A2996 RMK A01 T01041174  RH  012%=      5-min Rain = 0
KVA1 081009Z 22008KT 10/M17 A2996 RMK A01 T01041173  RH  012%=      5-min Rain = 0
KVA1 081010Z 21008KT 11/M17 A2996 RMK A01 T01051172  RH  013%=      5-min Rain = 0
KVA1 081011Z 21008KT 11/M17 A2996 RMK A01 T01061171  RH  013%=      5-min Rain = 0
KVA1 081012Z 21009KT 11/M17 A2996 RMK A01 T01061171  RH  013%=      5-min Rain = 0
KVA1 081013Z 21009KT 11/M17 A2996 RMK A01 T01061172  RH  012%=      5-min Rain = 0
KVA1 081014Z 21009KT 11/M17 A2996 RMK A01 T01061173  RH  012%=      5-min Rain = 0
KVA1 081015Z 21010KT 11/M17 A2996 RMK A01 T01071172  RH  012%=      5-min Rain = 0
KVA1 081016Z 21009KT 11/M17 A2996 RMK A01 T01081172  RH  012%=      5-min Rain = 0
KVA1 081017Z 22009KT 11/M17 A2996 RMK A01 T01091172  RH  012%=      5-min Rain = 0
KVA1 081018Z 22009KT 11/M17 A2996 RMK A01 T01091172  RH  012%=      5-min Rain = 0
KVA1 081019Z 21009KT 11/M17 A2996 RMK A01 T01091171  RH  012%=      5-min Rain = 0
KVA1 081020Z 22009KT 11/M17 A2996 RMK A01 T01101171  RH  012%=      5-min Rain = 0
KVA1 081021Z 22009KT 11/M17 A2996 RMK A01 T01101171  RH  012%=      5-min Rain = 0
KVA1 081022Z 22008KT 11/M17 A2996 RMK A01 T01091171  RH  012%=      5-min Rain = 0
KVA1 081023Z 21009KT 11/M17 A2996 RMK A01 T01091171  RH  012%=      5-min Rain = 0
KVA1 081024Z 22009KT 11/M17 A2996 RMK A01 T01091171  RH  012%=      5-min Rain = 0
KVA1 081025Z 22010KT 11/M17 A2997 RMK A01 T01081171  RH  012%=      5-min Rain = 0
KVA1 081026Z 22008KT 11/M17 A2996 RMK A01 T01081171  RH  012%=      5-min Rain = 0
KVA1 081027Z 22008KT 11/M17 A2996 RMK A01 T01081171  RH  012%=      5-min Rain = 0
KVA1 081028Z 22008KT 11/M17 A2996 RMK A01 T01091171  RH  012%=      5-min Rain = 0
KVA1 081029Z 23007KT 11/M17 A2996 RMK A01 T01101171  RH  012%=      5-min Rain = 0
KVA1 081030Z 23007KT 11/M17 A2996 RMK A01 T01101171  RH  012%=      5-min Rain = 0
KVA1 081031Z 23008KT 11/M17 A2996 RMK A01 T01101171  RH  012%=      5-min Rain = 0
KVA1 081032Z 23008KT 11/M17 A2996 RMK A01 T01111171  RH  012%=      5-min Rain = 0
KVA1 081033Z 23008KT 11/M17 A2996 RMK A01 T01111171  RH  012%=      5-min Rain = 0
KVA1 081034Z 23008KT 11/M17 A2996 RMK A01 T01111171  RH  012%=      5-min Rain = 0
KVA1 081035Z 23008KT 11/M17 A2996 RMK A01 T01111171  RH  012%=      5-min Rain = 0
KVA1 081036Z 23008KT 11/M17 A2996 RMK A01 T01101171  RH  012%=      5-min Rain = 0
KVA1 081037Z 23008KT 11/M17 A2996 RMK A01 T01101172  RH  012%=      5-min Rain = 0
KVA1 081038Z 23008KT 11/M17 A2996 RMK A01 T01101172  RH  012%=      5-min Rain = 0
KVA1 081039Z 23008KT 11/M17 A2996 RMK A01 T01101173  RH  012%=      5-min Rain = 0
KVA1 081040Z 23008KT 11/M17 A2996 RMK A01 T01101173  RH  012%=      5-min Rain = 0
KVA1 081041Z 24008KT 11/M17 A2996 RMK A01 T01111173  RH  012%=      5-min Rain = 0
KVA1 081042Z 23008KT 11/M17 A2996 RMK A01 T01101174  RH  012%=      5-min Rain = 0
KVA1 081043Z 24008KT 11/M17 A2996 RMK A01 T01101174  RH  012%=      5-min Rain = 0
KVA1 081044Z 24009KT 11/M18 A2995 RMK A01 T01101175  RH  012%=      5-min Rain = 0
KVA1 081045Z 24009KT 11/M18 A2995 RMK A01 T01111176  RH  012%=      5-min Rain = 0
KVA1 081046Z 24007KT 11/M18 A2995 RMK A01 T01121176  RH  012%=      5-min Rain = 0
KVA1 081047Z 24008KT 11/M18 A2995 RMK A01 T01131176  RH  011%=      5-min Rain = 0
KVA1 081048Z 24008KT 11/M18 A2995 RMK A01 T01131178  RH  011%=      5-min Rain = 0
KVA1 081049Z 24009KT 12/M18 A2995 RMK A01 T01151178  RH  011%=      5-min Rain = 0
KVA1 081050Z 25009KT 12/M18 A2995 RMK A01 T01161178  RH  011%=      5-min Rain = 0
KVA1 081051Z 25009KT 12/M18 A2995 RMK A01 T01191178  RH  011%=      5-min Rain = 0
KVA1 081052Z 25009KT 12/M18 A2995 RMK A01 T01201179  RH  011%=      5-min Rain = 0
KVA1 081053Z 25010KT 12/M18 A2995 RMK A01 T01221179  RH  011%=      5-min Rain = 0
KVA1 081054Z 25009KT 13/M18 A2995 RMK A01 T01251180  RH  010%=      5-min Rain = 0
KVA1 081055Z 25009KT 13/M18 A2995 RMK A01 T01261180  RH  010%=      5-min Rain = 0
KVA1 081056Z 24009KT 13/M18 A2995 RMK A01 T01271180  RH  010%=      5-min Rain = 0
KVA1 081057Z 24009KT 13/M18 A2995 RMK A01 T01261181  RH  010%=      5-min Rain = 0
KVA1 081058Z 24008KT 13/M18 A2995 RMK A01 T01271181  RH  010%=      5-min Rain = 0
KVA1 081059Z 24008KT 13/M18 A2995 RMK A01 T01271181  RH  010%=      5-min Rain = 0
KVA1 081100Z 24008KT 13/M18 A2995 RMK A01 T01271181  RH  010%=      5-min Rain = 0
KVA1 081101Z 24008KT 13/M18 A2995 RMK A01 T01261181  RH  010%=      5-min Rain = 0
KVA1 081102Z 24008KT 13/M18 A2995 RMK A01 T01261182  RH  010%=      5-min Rain = 0
KVA1 081103Z 24008KT 13/M18 A2995 RMK A01 T01251182  RH  010%=      5-min Rain = 0
KVA1 081104Z 25008KT 13/M18 A2995 RMK A01 T01251182  RH  010%=      5-min Rain = 0
KVA1 081105Z 25008KT 13/M18 A2995 RMK A01 T01251181  RH  010%=      5-min Rain = 0
KVA1 081106Z 24007KT 13/M18 A2996 RMK A01 T01251181  RH  010%=      5-min Rain = 0
KVA1 081107Z 25007KT 13/M18 A2996 RMK A01 T01251182  RH  010%=      5-min Rain = 0
KVA1 081108Z 25007KT 13/M18 A2996 RMK A01 T01251181  RH  010%=      5-min Rain = 0
KVA1 081109Z 25007KT 13/M18 A2996 RMK A01 T01261181  RH  010%=      5-min Rain = 0
KVA1 081110Z 25007KT 13/M18 A2996 RMK A01 T01271182  RH  010%=      5-min Rain = 0
KVA1 081111Z 24006KT 13/M18 A2996 RMK A01 T01281181  RH  010%=      5-min Rain = 0
KVA1 081112Z 24006KT 13/M18 A2996 RMK A01 T01291181  RH  010%=      5-min Rain = 0
KVA1 081113Z 24006KT 13/M18 A2996 RMK A01 T01301182  RH  010%=      5-min Rain = 0
KVA1 081114Z 24006KT 13/M18 A2996 RMK A01 T01301182  RH  010%=      5-min Rain = 0
KVA1 081115Z 23006KT 13/M18 A2996 RMK A01 T01301182  RH  010%=      5-min Rain = 0
KVA1 081116Z 23007KT 13/M18 A2996 RMK A01 T01301182  RH  010%=      5-min Rain = 0
KVA1 081117Z 23007KT 13/M18 A2996 RMK A01 T01291182  RH  010%=      5-min Rain = 0
KVA1 081118Z 23008KT 13/M18 A2996 RMK A01 T01291182  RH  010%=      5-min Rain = 0
KVA1 081119Z 23008KT 13/M18 A2996 RMK A01 T01301182  RH  010%=      5-min Rain = 0
KVA1 081120Z 23008KT 13/M18 A2996 RMK A01 T01311181  RH  010%=      5-min Rain = 0
KVA1 081121Z 23009KT 13/M18 A2996 RMK A01 T01321182  RH  010%=      5-min Rain = 0
KVA1 081122Z 23009KT 13/M18 A2996 RMK A01 T01331182  RH  010%=      5-min Rain = 0
KVA1 081123Z 23009KT 14/M18 A2996 RMK A01 T01351182  RH  010%=      5-min Rain = 0
KVA1 081124Z 23009KT 14/M18 A2996 RMK A01 T01371181  RH  009%=      5-min Rain = 0
KVA1 081125Z 23009KT 14/M18 A2996 RMK A01 T01381182  RH  009%=      5-min Rain = 0
KVA1 081126Z 23009KT 14/M18 A2996 RMK A01 T01401181  RH  009%=      5-min Rain = 0
KVA1 081127Z 23009KT 14/M18 A2996 RMK A01 T01401181  RH  009%=      5-min Rain = 0
KVA1 081128Z 23009KT 14/M18 A2997 RMK A01 T01401182  RH  009%=      5-min Rain = 0
KVA1 081129Z 23009KT 14/M18 A2997 RMK A01 T01411182  RH  009%=      5-min Rain = 0
KVA1 081130Z 23008KT 14/M18 A2997 RMK A01 T01421181  RH  009%=      5-min Rain = 0
KVA1 081131Z 23008KT 14/M18 A2997 RMK A01 T01441181  RH  009%=      5-min Rain = 0
KVA1 081132Z 23008KT 15/M18 A2997 RMK A01 T01451182  RH  009%=      5-min Rain = 0
KVA1 081133Z 22007KT 15/M18 A2997 RMK A01 T01451182  RH  009%=      5-min Rain = 0
KVA1 081134Z 22007KT 14/M18 A2997 RMK A01 T01411183  RH  009%=      5-min Rain = 0
KVA1 081135Z 22007KT 14/M18 A2997 RMK A01 T01361184  RH  009%=      5-min Rain = 0
KVA1 081136Z 21006KT 13/M18 A2997 RMK A01 T01331184  RH  009%=      5-min Rain = 0
KVA1 081137Z 21008KT 13/M18 A2997 RMK A01 T01291183  RH  010%=      5-min Rain = 0
KVA1 081138Z 21008KT 13/M18 A2997 RMK A01 T01251184  RH  010%=      5-min Rain = 0
KVA1 081139Z 21008KT 12/M18 A2997 RMK A01 T01241182  RH  010%=      5-min Rain = 0
KVA1 081140Z 22008KT 12/M18 A2997 RMK A01 T01211182  RH  010%=      5-min Rain = 0
KVA1 081141Z 22009KT 12/M18 A2997 RMK A01 T01181183  RH  011%=      5-min Rain = 0
KVA1 081142Z 22010KT 12/M18 A2997 RMK A01 T01171182  RH  011%=      5-min Rain = 0
KVA1 081143Z 22009KT 12/M18 A2997 RMK A01 T01171182  RH  011%=      5-min Rain = 0
KVA1 081144Z 22008KT 12/M18 A2997 RMK A01 T01171182  RH  011%=      5-min Rain = 0
KVA1 081145Z 22008KT 12/M18 A2997 RMK A01 T01171182  RH  011%=      5-min Rain = 0
KVA1 081146Z 21009KT 12/M18 A2997 RMK A01 T01171182  RH  011%=      5-min Rain = 0
KVA1 081147Z 21009KT 12/M18 A2997 RMK A01 T01161182  RH  011%=      5-min Rain = 0
KVA1 081148Z 22009KT 12/M18 A2997 RMK A01 T01171181  RH  011%=      5-min Rain = 0
KVA1 081149Z 22009KT 12/M18 A2997 RMK A01 T01161182  RH  011%=      5-min Rain = 0
KVA1 081150Z 22009KT 12/M18 A2997 RMK A01 T01161182  RH  011%=      5-min Rain = 0
KVA1 081151Z 21008KT 12/M18 A2997 RMK A01 T01161182  RH  011%=      5-min Rain = 0
KVA1 081152Z 22008KT 12/M18 A2997 RMK A01 T01161181  RH  011%=      5-min Rain = 0
KVA1 081153Z 22008KT 12/M18 A2997 RMK A01 T01161181  RH  011%=      5-min Rain = 0
KVA1 081154Z 22009KT 12/M18 A2997 RMK A01 T01161181  RH  011%=      5-min Rain = 0
KVA1 081155Z 22008KT 12/M18 A2997 RMK A01 T01161181  RH  011%=      5-min Rain = 0
KVA1 081156Z 22008KT 12/M18 A2998 RMK A01 T01161181  RH  011%=      5-min Rain = 0
KVA1 081157Z 22009KT 12/M18 A2998 RMK A01 T01151181  RH  011%=      5-min Rain = 0
KVA1 081158Z 22009KT 12/M18 A2998 RMK A01 T01151181  RH  011%=      5-min Rain = 0
KVA1 081159Z 22009KT 12/M18 A2998 RMK A01 T01151180  RH  011%=      5-min Rain = 0
KVA1 081200Z 22010KT 11/M18 A2998 RMK A01 T01141180  RH  011%=      5-min Rain = 0
KVA1 081201Z 22010KT 11/M18 A2998 RMK A01 T01141180  RH  011%=      5-min Rain = 0
KVA1 081202Z 22010KT 12/M18 A2998 RMK A01 T01151179  RH  011%=      5-min Rain = 0
KVA1 081203Z 22009KT 12/M18 A2998 RMK A01 T01161178  RH  011%=      5-min Rain = 0
KVA1 081204Z 22009KT 12/M18 A2998 RMK A01 T01161178  RH  011%=      5-min Rain = 0
KVA1 081205Z 22009KT 12/M18 A2998 RMK A01 T01161178  RH  011%=      5-min Rain = 0
KVA1 081206Z 22009KT 12/M18 A2998 RMK A01 T01151178  RH  011%=      5-min Rain = 0
KVA1 081207Z 23009KT 12/M18 A2998 RMK A01 T01151177  RH  011%=      5-min Rain = 0
KVA1 081208Z 23008KT 12/M18 A2998 RMK A01 T01161177  RH  011%=      5-min Rain = 0
KVA1 081209Z 23008KT 12/M18 A2998 RMK A01 T01161176  RH  011%=      5-min Rain = 0
KVA1 081210Z 23008KT 12/M18 A2998 RMK A01 T01161176  RH  011%=      5-min Rain = 0
KVA1 081211Z 23009KT 12/M18 A2998 RMK A01 T01171177  RH  011%=      5-min Rain = 0
KVA1 081212Z 23009KT 12/M18 A2998 RMK A01 T01181177  RH  011%=      5-min Rain = 0
KVA1 081213Z 23009KT 12/M18 A2998 RMK A01 T01191176  RH  011%=      5-min Rain = 0
KVA1 081214Z 23009KT 12/M18 A2998 RMK A01 T01201177  RH  011%=      5-min Rain = 0
KVA1 081215Z 24010KT 12/M18 A2998 RMK A01 T01211177  RH  011%=      5-min Rain = 0
KVA1 081216Z 24010KT 12/M18 A2998 RMK A01 T01231177  RH  011%=      5-min Rain = 0
KVA1 081217Z 24010KT 13/M18 A2998 RMK A01 T01261177  RH  011%=      5-min Rain = 0
KVA1 081218Z 24010KT 13/M18 A2998 RMK A01 T01291177  RH  010%=      5-min Rain = 0
KVA1 081219Z 24010KT 13/M18 A2998 RMK A01 T01321177  RH  010%=      5-min Rain = 0
KVA1 081220Z 24010KT 14/M18 A2998 RMK A01 T01361176  RH  010%=      5-min Rain = 0
KVA1 081221Z 24010KT 14/M18 A2998 RMK A01 T01401176  RH  010%=      5-min Rain = 0
KVA1 081222Z 24010KT 14/M18 A2998 RMK A01 T01431176  RH  009%=      5-min Rain = 0
KVA1 081223Z 24010KT 15/M18 A2998 RMK A01 T01461177  RH  009%=      5-min Rain = 0
KVA1 081224Z 24010KT 15/M18 A2998 RMK A01 T01481177  RH  009%=      5-min Rain = 0
KVA1 081225Z 24009KT 15/M18 A2998 RMK A01 T01481177  RH  009%=      5-min Rain = 0
KVA1 081226Z 24010KT 15/M18 A2998 RMK A01 T01491177  RH  009%=      5-min Rain = 0
KVA1 081227Z 24009KT 15/M18 A2998 RMK A01 T01491177  RH  009%=      5-min Rain = 0
KVA1 081228Z 24009KT 15/M18 A2998 RMK A01 T01501177  RH  009%=      5-min Rain = 0
KVA1 081229Z 24010KT 15/M18 A2998 RMK A01 T01511176  RH  009%=      5-min Rain = 0
KVA1 081230Z 25009KT 15/M18 A2998 RMK A01 T01511176  RH  009%=      5-min Rain = 0
KVA1 081231Z 24010KT 15/M18 A2998 RMK A01 T01511177  RH  009%=      5-min Rain = 0
KVA1 081232Z 24010KT 15/M18 A2998 RMK A01 T01501178  RH  009%=      5-min Rain = 0
KVA1 081233Z 25010KT 15/M18 A2998 RMK A01 T01501178  RH  009%=      5-min Rain = 0
KVA1 081234Z 25010KT 15/M18 A2998 RMK A01 T01491177  RH  009%=      5-min Rain = 0
KVA1 081235Z 25010KT 15/M18 A2998 RMK A01 T01481177  RH  009%=      5-min Rain = 0
KVA1 081236Z 25011KT 15/M18 A2998 RMK A01 T01471178  RH  009%=      5-min Rain = 0
KVA1 081237Z 25011KT 15/M18 A2998 RMK A01 T01471177  RH  009%=      5-min Rain = 0
KVA1 081238Z 25011KT 15/M18 A2998 RMK A01 T01471177  RH  009%=      5-min Rain = 0
KVA1 081239Z 25011KT 15/M18 A2998 RMK A01 T01481176  RH  009%=      5-min Rain = 0
KVA1 081240Z 25011KT 15/M18 A2998 RMK A01 T01491176  RH  009%=      5-min Rain = 0
KVA1 081241Z 25011KT 15/M18 A2998 RMK A01 T01511175  RH  009%=      5-min Rain = 0
KVA1 081242Z 25010KT 15/M18 A2998 RMK A01 T01521175  RH  009%=      5-min Rain = 0
KVA1 081243Z 25011KT 15/M18 A2998 RMK A01 T01521176  RH  009%=      5-min Rain = 0
KVA1 081244Z 25010KT 15/M18 A2998 RMK A01 T01521176  RH  009%=      5-min Rain = 0
KVA1 081245Z 25010KT 15/M18 A2998 RMK A01 T01531176  RH  009%=      5-min Rain = 0
KVA1 081246Z 25009KT 15/M18 A2998 RMK A01 T01541175  RH  009%=      5-min Rain = 0
KVA1 081247Z 25009KT 15/M18 A2998 RMK A01 T01541175  RH  009%=      5-min Rain = 0
KVA1 081248Z 25010KT 15/M18 A2998 RMK A01 T01541176  RH  009%=      5-min Rain = 0
KVA1 081249Z 26009KT 15/M18 A2998 RMK A01 T01531176  RH  009%=      5-min Rain = 0
KVA1 081250Z 26009KT 15/M17 A2998 RMK A01 T01531174  RH  009%=      5-min Rain = 0
KVA1 081251Z 26009KT 15/M18 A2998 RMK A01 T01531175  RH  009%=      5-min Rain = 0
KVA1 081252Z 26009KT 15/M18 A2998 RMK A01 T01541175  RH  009%=      5-min Rain = 0
KVA1 081253Z 26009KT 15/M18 A2998 RMK A01 T01541175  RH  009%=      5-min Rain = 0
KVA1 081254Z 26009KT 15/M18 A2998 RMK A01 T01541175  RH  009%=      5-min Rain = 0
KVA1 081255Z 26009KT 16/M18 A2998 RMK A01 T01551175  RH  009%=      5-min Rain = 0
KVA1 081256Z 26009KT 16/M18 A2998 RMK A01 T01551175  RH  009%=      5-min Rain = 0
KVA1 081257Z 26009KT 16/M18 A2998 RMK A01 T01561175  RH  009%=      5-min Rain = 0
KVA1 081258Z 26009KT 16/M18 A2998 RMK A01 T01561175  RH  009%=      5-min Rain = 0
KVA1 081259Z 26009KT 16/M18 A2998 RMK A01 T01551175  RH  009%=      5-min Rain = 0
KVA1 081300Z 26009KT 16/M18 A2998 RMK A01 T01551175  RH  009%=      5-min Rain = 0
KVA1 081301Z 26009KT 16/M18 A2998 RMK A01 T01551175  RH  009%=      5-min Rain = 0
KVA1 081302Z 26009KT 15/M18 A2998 RMK A01 T01541175  RH  009%=      5-min Rain = 0
KVA1 081303Z 26008KT 15/M18 A2998 RMK A01 T01531176  RH  009%=      5-min Rain = 0
KVA1 081304Z 26008KT 15/M18 A2998 RMK A01 T01531176  RH  009%=      5-min Rain = 0
KVA1 081305Z 26008KT 15/M18 A2998 RMK A01 T01531175  RH  009%=      5-min Rain = 0
KVA1 081306Z 26008KT 15/M18 A2998 RMK A01 T01541175  RH  009%=      5-min Rain = 0
KVA1 081307Z 26010KT 16/M17 A2998 RMK A01 T01551174  RH  009%=      5-min Rain = 0
KVA1 081308Z 26010KT 16/M17 A2998 RMK A01 T01581173  RH  009%=      5-min Rain = 0
KVA1 081309Z 26011KT 16/M17 A2998 RMK A01 T01621173  RH  009%=      5-min Rain = 0
KVA1 081310Z 26011KT 17/M17 A2998 RMK A01 T01661173  RH  008%=      5-min Rain = 0
KVA1 081311Z 26011KT 17/M17 A2998 RMK A01 T01691173  RH  008%=      5-min Rain = 0
KVA1 081312Z 26011KT 17/M17 A2998 RMK A01 T01701173  RH  008%=      5-min Rain = 0
KVA1 081313Z 26010KT 17/M17 A2998 RMK A01 T01711174  RH  008%=      5-min Rain = 0
KVA1 081314Z 26010KT 17/M17 A2998 RMK A01 T01721173  RH  008%=      5-min Rain = 0
KVA1 081315Z 26011KT 17/M17 A2998 RMK A01 T01721174  RH  008%=      5-min Rain = 0
KVA1 081316Z 26011KT 17/M17 A2998 RMK A01 T01731174  RH  008%=      5-min Rain = 0
KVA1 081317Z 26011KT 17/M17 A2998 RMK A01 T01741174  RH  008%=      5-min Rain = 0
KVA1 081318Z 26010KT 17/M17 A2998 RMK A01 T01741174  RH  008%=      5-min Rain = 0
KVA1 081319Z 26010KT 17/M17 A2998 RMK A01 T01741174  RH  008%=      5-min Rain = 0
KVA1 081320Z 26011KT 18/M17 A2999 RMK A01 T01751174  RH  008%=      5-min Rain = 0
KVA1 081321Z 26011KT 18/M17 A2999 RMK A01 T01751173  RH  008%=      5-min Rain = 0
KVA1 081322Z 27011KT 17/M17 A2999 RMK A01 T01741174  RH  008%=      5-min Rain = 0
KVA1 081323Z 26010KT 17/M17 A2999 RMK A01 T01741174  RH  008%=      5-min Rain = 0
KVA1 081324Z 27010KT 17/M17 A2999 RMK A01 T01741174  RH  008%=      5-min Rain = 0
KVA1 081325Z 27011KT 18/M17 A2999 RMK A01 T01751174  RH  008%=      5-min Rain = 0
KVA1 081326Z 26011KT 18/M17 A2999 RMK A01 T01761174  RH  008%=      5-min Rain = 0
KVA1 081327Z 26011KT 18/M17 A2999 RMK A01 T01771174  RH  008%=      5-min Rain = 0
KVA1 081328Z 27011KT 18/M17 A2999 RMK A01 T01771173  RH  008%=      5-min Rain = 0
KVA1 081329Z 27010KT 18/M17 A2999 RMK A01 T01781174  RH  008%=      5-min Rain = 0
KVA1 081330Z 27011KT 18/M18 A2999 RMK A01 T01791175  RH  008%=      5-min Rain = 0
KVA1 081331Z 27011KT 18/M18 A2999 RMK A01 T01811175  RH  008%=      5-min Rain = 0
KVA1 081332Z 26012KT 18/M17 A2999 RMK A01 T01821174  RH  008%=      5-min Rain = 0
KVA1 081333Z 27012KT 18/M18 A2999 RMK A01 T01831175  RH  007%=      5-min Rain = 0
KVA1 081334Z 27013KT 19/M18 A2999 RMK A01 T01851175  RH  007%=      5-min Rain = 0
KVA1 081335Z 27012KT 19/M18 A2999 RMK A01 T01871176  RH  007%=      5-min Rain = 0
KVA1 081336Z 27013KT 19/M18 A2999 RMK A01 T01881176  RH  007%=      5-min Rain = 0
KVA1 081337Z 27011KT 19/M18 A2999 RMK A01 T01901175  RH  007%=      5-min Rain = 0
KVA1 081338Z 27012G17KT 19/M18 A2999 RMK A01 T01911177  RH  007%=      5-min Rain = 0
KVA1 081339Z 27014KT 19/M18 A2999 RMK A01 T01931176  RH  007%=      5-min Rain = 0
KVA1 081340Z 27014KT 19/M18 A2999 RMK A01 T01941176  RH  007%=      5-min Rain = 0
KVA1 081341Z 26012KT 19/M18 A2999 RMK A01 T01941176  RH  007%=      5-min Rain = 0
KVA1 081342Z 27013KT 20/M18 A2999 RMK A01 T01951176  RH  007%=      5-min Rain = 0
KVA1 081343Z 27013KT 20/M18 A2999 RMK A01 T01961175  RH  007%=      5-min Rain = 0
KVA1 081344Z 27012KT 20/M18 A2999 RMK A01 T01971175  RH  007%=      5-min Rain = 0
KVA1 081345Z 27014KT 20/M18 A2999 RMK A01 T01971176  RH  007%=      5-min Rain = 0
KVA1 081346Z 27012KT 20/M18 A2999 RMK A01 T01971176  RH  007%=      5-min Rain = 0
KVA1 081347Z 27014KT 20/M18 A2999 RMK A01 T01981176  RH  007%=      5-min Rain = 0
KVA1 081348Z 27013KT 20/M18 A2999 RMK A01 T01981176  RH  007%=      5-min Rain = 0
KVA1 081349Z 27011KT 20/M18 A30 RMK A01 T01991176  RH  007%=      5-min Rain = 0
KVA1 081350Z 27013KT 20/M17 A30 RMK A01 T02001174  RH  007%=      5-min Rain = 0
KVA1 081351Z 27012KT 20/M17 A30 RMK A01 T02001174  RH  007%=      5-min Rain = 0
KVA1 081352Z 27013G18KT 20/M18 A2999 RMK A01 T02001176  RH  007%=      5-min Rain = 0
KVA1 081353Z 27011KT 20/M18 A30 RMK A01 T02001176  RH  007%=      5-min Rain = 0
KVA1 081354Z 27013KT 20/M18 A30 RMK A01 T02011175  RH  007%=      5-min Rain = 0
KVA1 081355Z 27015G20KT 20/M18 A30 RMK A01 T02011175  RH  007%=      5-min Rain = 0
KVA1 081356Z 27016KT 20/M18 A30 RMK A01 T02021177  RH  006%=      5-min Rain = 0
KVA1 081357Z 27016KT 20/M18 A30 RMK A01 T02031177  RH  006%=      5-min Rain = 0
KVA1 081358Z 28015KT 20/M18 A30 RMK A01 T02041177  RH  006%=      5-min Rain = 0
KVA1 081359Z 27016KT 21/M18 A30 RMK A01 T02051176  RH  006%=      5-min Rain = 0
KVA1 081400Z 28017KT 21/M18 A30 RMK A01 T02051179  RH  006%=      5-min Rain = 0
KVA1 081401Z 28017G22KT 21/M18 A30 RMK A01 T02051178  RH  006%=      5-min Rain = 0
KVA1 081402Z 27014KT 21/M18 A30 RMK A01 T02051179  RH  006%=      5-min Rain = 0
KVA1 081403Z 27017KT 21/M18 A30 RMK A01 T02061178  RH  006%=      5-min Rain = 0
KVA1 081404Z 28014KT 21/M18 A30 RMK A01 T02061177  RH  006%=      5-min Rain = 0
KVA1 081405Z 28016KT 21/M18 A30 RMK A01 T02061178  RH  006%=      5-min Rain = 0
KVA1 081406Z 27017KT 21/M18 A30 RMK A01 T02061178  RH  006%=      5-min Rain = 0
KVA1 081407Z 27016KT 21/M18 A30 RMK A01 T02061178  RH  006%=      5-min Rain = 0
KVA1 081408Z 28014G19KT 21/M18 A30 RMK A01 T02061179  RH  006%=      5-min Rain = 0
KVA1 081409Z 27015G20KT 21/M18 A30 RMK A01 T02071177  RH  006%=      5-min Rain = 0
KVA1 081410Z 27014G20KT 21/M18 A30 RMK A01 T02061178  RH  006%=      5-min Rain = 0
KVA1 081411Z 28016G21KT 21/M18 A30 RMK A01 T02071178  RH  006%=      5-min Rain = 0
KVA1 081412Z 28014KT 21/M18 A30 RMK A01 T02071178  RH  006%=      5-min Rain = 0
KVA1 081413Z 27014KT 21/M18 A30 RMK A01 T02071177  RH  006%=      5-min Rain = 0
KVA1 081414Z 27016G21KT 21/M18 A30 RMK A01 T02071178  RH  006%=      5-min Rain = 0
KVA1 081415Z 28017KT 21/M18 A30 RMK A01 T02071179  RH  006%=      5-min Rain = 0
KVA1 081416Z 27012G18KT 21/M18 A30 RMK A01 T02071177  RH  006%=      5-min Rain = 0
KVA1 081417Z 27015KT 21/M18 A30 RMK A01 T02071178  RH  006%=      5-min Rain = 0
KVA1 081418Z 27015KT 21/M18 A30 RMK A01 T02071178  RH  006%=      5-min Rain = 0
KVA1 081419Z 27013KT 21/M18 A30 RMK A01 T02071178  RH  006%=      5-min Rain = 0
KVA1 081420Z 27017KT 21/M18 A30 RMK A01 T02081177  RH  006%=      5-min Rain = 0
KVA1 081421Z 27015G20KT 21/M18 A30 RMK A01 T02071177  RH  006%=      5-min Rain = 0
KVA1 081422Z 27015G21KT 21/M18 A30 RMK A01 T02071178  RH  006%=      5-min Rain = 0
KVA1 081423Z 27016KT 21/M18 A30 RMK A01 T02071178  RH  006%=      5-min Rain = 0
KVA1 081424Z 28014KT 21/M18 A30 RMK A01 T02071178  RH  006%=      5-min Rain = 0
KVA1 081425Z 27011KT 21/M18 A30 RMK A01 T02071177  RH  006%=      5-min Rain = 0
KVA1 081426Z 28014KT 21/M18 A30 RMK A01 T02081175  RH  006%=      5-min Rain = 0
KVA1 081427Z 27013KT 21/M18 A30 RMK A01 T02081177  RH  006%=      5-min Rain = 0
KVA1 081428Z 28010KT 21/M18 A30 RMK A01 T02081177  RH  006%=      5-min Rain = 0
KVA1 081429Z 27012G18KT 21/M18 A3001 RMK A01 T02091176  RH  006%=      5-min Rain = 0
KVA1 081430Z 27012KT 21/M18 A3001 RMK A01 T02101175  RH  006%=      5-min Rain = 0
KVA1 081431Z 27012KT 21/M18 A3001 RMK A01 T02101176  RH  006%=      5-min Rain = 0
KVA1 081432Z 27013KT 21/M18 A3001 RMK A01 T02101177  RH  006%=      5-min Rain = 0
KVA1 081433Z 28009KT 21/M18 A3001 RMK A01 T02101176  RH  006%=      5-min Rain = 0
KVA1 081434Z 27012KT 21/M17 A3001 RMK A01 T02111174  RH  006%=      5-min Rain = 0
KVA1 081435Z 27012KT 21/M18 A3001 RMK A01 T02121175  RH  006%=      5-min Rain = 0
KVA1 081436Z 28011KT 21/M18 A3001 RMK A01 T02111177  RH  006%=      5-min Rain = 0
KVA1 081437Z 28010KT 21/M18 A3001 RMK A01 T02111175  RH  006%=      5-min Rain = 0
KVA1 081438Z 28009KT 21/M17 A3001 RMK A01 T02121174  RH  006%=      5-min Rain = 0
KVA1 081439Z 29008KT 21/M17 A3001 RMK A01 T02141173  RH  006%=      5-min Rain = 0
KVA1 081440Z 29010KT 22/M17 A3001 RMK A01 T02151171  RH  006%=      5-min Rain = 0
KVA1 081441Z 28010KT 22/M17 A3001 RMK A01 T02151172  RH  006%=      5-min Rain = 0
KVA1 081442Z 29009KT 22/M17 A3001 RMK A01 T02161172  RH  006%=      5-min Rain = 0
KVA1 081443Z 29010KT 22/M17 A3001 RMK A01 T02171172  RH  006%=      5-min Rain = 0
KVA1 081444Z 29009KT 22/M17 A3001 RMK A01 T02181172  RH  006%=      5-min Rain = 0
KVA1 081445Z 29008KT 22/M17 A3001 RMK A01 T02181170  RH  006%=      5-min Rain = 0
KVA1 081446Z 29008G16KT 22/M17 A3001 RMK A01 T02191171  RH  006%=      5-min Rain = 0
KVA1 081447Z 29011KT 22/M17 A3001 RMK A01 T02191172  RH  006%=      5-min Rain = 0
KVA1 081448Z 29010KT 22/M17 A3001 RMK A01 T02191171  RH  006%=      5-min Rain = 0
KVA1 081449Z 30010KT 22/M17 A3001 RMK A01 T02191171  RH  006%=      5-min Rain = 0
KVA1 081450Z 29007KT 22/M17 A3001 RMK A01 T02181172  RH  006%=      5-min Rain = 0
KVA1 081451Z 29012KT 22/M17 A3001 RMK A01 T02191171  RH  006%=      5-min Rain = 0
KVA1 081452Z 29011KT 22/M17 A3001 RMK A01 T02191171  RH  006%=      5-min Rain = 0
KVA1 081453Z 29014KT 22/M17 A3001 RMK A01 T02191170  RH  006%=      5-min Rain = 0
KVA1 081454Z 30011G16KT 22/M17 A30 RMK A01 T02171172  RH  006%=      5-min Rain = 0
KVA1 081455Z 29011KT 22/M17 A30 RMK A01 T02171171  RH  006%=      5-min Rain = 0
KVA1 081456Z 29008KT 22/M17 A30 RMK A01 T02161171  RH  006%=      5-min Rain = 0
KVA1 081457Z 29010KT 22/M17 A30 RMK A01 T02161171  RH  006%=      5-min Rain = 0
KVA1 081458Z 29010KT 22/M17 A30 RMK A01 T02161170  RH  006%=      5-min Rain = 0
KVA1 081459Z 28009KT 22/M17 A30 RMK A01 T02161170  RH  006%=      5-min Rain = 0
KVA1 081500Z 29009G14KT 22/M17 A30 RMK A01 T02161171  RH  006%=      5-min Rain = 0
KVA1 081501Z 30010KT 22/M17 A30 RMK A01 T02161171  RH  006%=      5-min Rain = 0
KVA1 081502Z 29011KT 22/M17 A30 RMK A01 T02171170  RH  006%=      5-min Rain = 0
KVA1 081503Z 28011KT 22/M17 A30 RMK A01 T02191169  RH  006%=      5-min Rain = 0
KVA1 081504Z 29009G14KT 22/M17 A30 RMK A01 T02211167  RH  006%=      5-min Rain = 0
KVA1 081505Z 28012G19KT 22/M17 A30 RMK A01 T02221168  RH  006%=      5-min Rain = 0
KVA1 081506Z 28014KT 22/M17 A30 RMK A01 T02221169  RH  006%=      5-min Rain = 0
KVA1 081507Z 28012G18KT 22/M17 A30 RMK A01 T02221169  RH  006%=      5-min Rain = 0
KVA1 081508Z 28009G14KT 22/M17 A30 RMK A01 T02221168  RH  006%=      5-min Rain = 0
KVA1 081509Z 28008KT 22/M17 A30 RMK A01 T02241167  RH  006%=      5-min Rain = 0
KVA1 081510Z 27013KT 23/M17 A30 RMK A01 T02261166  RH  006%=      5-min Rain = 0
KVA1 081511Z 29015KT 23/M17 A30 RMK A01 T02271168  RH  006%=      5-min Rain = 0
KVA1 081512Z 28012KT 23/M17 A30 RMK A01 T02261169  RH  006%=      5-min Rain = 0
KVA1 081513Z 27011G17KT 23/M17 A30 RMK A01 T02261167  RH  006%=      5-min Rain = 0
KVA1 081514Z 27012KT 23/M17 A30 RMK A01 T02271168  RH  006%=      5-min Rain = 0
KVA1 081515Z 28015G20KT 23/M17 A30 RMK A01 T02271168  RH  006%=      5-min Rain = 0
KVA1 081516Z 29013KT 23/M17 A30 RMK A01 T02271169  RH  006%=      5-min Rain = 0
KVA1 081517Z 29015G20KT 23/M17 A30 RMK A01 T02271170  RH  006%=      5-min Rain = 0
KVA1 081518Z 29013G18KT 23/M17 A30 RMK A01 T02271169  RH  006%=      5-min Rain = 0
KVA1 081519Z 29016KT 23/M17 A30 RMK A01 T02261169  RH  006%=      5-min Rain = 0
KVA1 081520Z 28015G20KT 23/M17 A30 RMK A01 T02261170  RH  006%=      5-min Rain = 0
KVA1 081521Z 29013KT 23/M17 A30 RMK A01 T02261169  RH  006%=      5-min Rain = 0
KVA1 081522Z 29013KT 23/M17 A30 RMK A01 T02281168  RH  006%=      5-min Rain = 0
KVA1 081523Z 28013KT 23/M17 A3001 RMK A01 T02311165  RH  006%=      5-min Rain = 0
KVA1 081524Z 27014KT 23/M17 A3001 RMK A01 T02311166  RH  006%=      5-min Rain = 0
KVA1 081525Z 28012KT 23/M17 A30 RMK A01 T02311168  RH  006%=      5-min Rain = 0
KVA1 081526Z 27013KT 23/M17 A30 RMK A01 T02321167  RH  006%=      5-min Rain = 0
KVA1 081527Z 27010G15KT 23/M17 A30 RMK A01 T02331165  RH  006%=      5-min Rain = 0
KVA1 081528Z 28013KT 24/M17 A30 RMK A01 T02351165  RH  006%=      5-min Rain = 0
KVA1 081529Z 29009KT 24/M17 A30 RMK A01 T02361165  RH  006%=      5-min Rain = 0
KVA1 081530Z 28011G17KT 24/M16 A30 RMK A01 T02391163  RH  006%=      5-min Rain = 0
KVA1 081531Z 29016G22KT 24/M17 A30 RMK A01 T02401165  RH  006%=      5-min Rain = 0
KVA1 081532Z 28013KT 24/M17 A30 RMK A01 T02371167  RH  006%=      5-min Rain = 0
KVA1 081533Z 28013KT 24/M17 A30 RMK A01 T02371165  RH  006%=      5-min Rain = 0
KVA1 081534Z 29010KT 24/M17 A30 RMK A01 T02381165  RH  006%=      5-min Rain = 0
KVA1 081535Z 28011KT 24/M16 A30 RMK A01 T02391164  RH  006%=      5-min Rain = 0
KVA1 081536Z 27012G17KT 24/M16 A30 RMK A01 T02401164  RH  006%=      5-min Rain = 0
KVA1 081537Z 28015G21KT 24/M17 A30 RMK A01 T02401165  RH  006%=      5-min Rain = 0
KVA1 081538Z 27015KT 24/M17 A30 RMK A01 T02381167  RH  006%=      5-min Rain = 0
KVA1 081539Z 27015G21KT 24/M17 A30 RMK A01 T02371166  RH  006%=      5-min Rain = 0
KVA1 081540Z 28014G19KT 24/M17 A30 RMK A01 T02371165  RH  006%=      5-min Rain = 0
KVA1 081541Z 29015KT 24/M17 A30 RMK A01 T02381165  RH  006%=      5-min Rain = 0
KVA1 081542Z 28016KT 24/M17 A30 RMK A01 T02381166  RH  006%=      5-min Rain = 0
KVA1 081543Z 27014KT 24/M17 A30 RMK A01 T02381166  RH  006%=      5-min Rain = 0
KVA1 081544Z 27016KT 24/M17 A30 RMK A01 T02381165  RH  006%=      5-min Rain = 0
KVA1 081545Z 27012KT 24/M17 A30 RMK A01 T02381166  RH  006%=      5-min Rain = 0
KVA1 081546Z 28016G21KT 24/M17 A30 RMK A01 T02381167  RH  006%=      5-min Rain = 0
KVA1 081547Z 28013G20KT 24/M17 A30 RMK A01 T02391166  RH  006%=      5-min Rain = 0
KVA1 081548Z 27010G15KT 24/M17 A30 RMK A01 T02401165  RH  006%=      5-min Rain = 0
KVA1 081549Z 28016G23KT 24/M16 A30 RMK A01 T02421163  RH  006%=      5-min Rain = 0
KVA1 081550Z 28016KT 24/M16 A30 RMK A01 T02421163  RH  006%=      5-min Rain = 0
KVA1 081551Z 27012KT 24/M16 A30 RMK A01 T02411163  RH  006%=      5-min Rain = 0
KVA1 081552Z 26011KT 24/M16 A30 RMK A01 T02431161  RH  006%=      5-min Rain = 0
KVA1 081553Z 27011KT 25/M16 A30 RMK A01 T02461159  RH  006%=      5-min Rain = 0
KVA1 081554Z 26015KT 25/M16 A30 RMK A01 T02481160  RH  006%=      5-min Rain = 0
KVA1 081555Z 26013G18KT 25/M16 A30 RMK A01 T02471162  RH  006%=      5-min Rain = 0
KVA1 081556Z 26016KT 25/M16 A30 RMK A01 T02461162  RH  006%=      5-min Rain = 0
KVA1 081557Z 26016KT 24/M17 A30 RMK A01 T02441165  RH  006%=      5-min Rain = 0
KVA1 081558Z 27016KT 24/M17 A30 RMK A01 T02431165  RH  006%=      5-min Rain = 0
KVA1 081559Z 27016KT 24/M17 A30 RMK A01 T02421165  RH  006%=      5-min Rain = 0
KVA1 081600Z 26016KT 24/M16 A3001 RMK A01 T02411164  RH  006%=      5-min Rain = 0
KVA1 081601Z 26013G21KT 24/M16 A3001 RMK A01 T02411164  RH  006%=      5-min Rain = 0
KVA1 081602Z 27012G18KT 24/M16 A3001 RMK A01 T02421163  RH  006%=      5-min Rain = 0
KVA1 081603Z 26015KT 24/M16 A3001 RMK A01 T02441161  RH  006%=      5-min Rain = 0
KVA1 081604Z 26017KT 25/M16 A3001 RMK A01 T02451163  RH  006%=      5-min Rain = 0
KVA1 081605Z 26017KT 24/M17 A3001 RMK A01 T02441165  RH  006%=      5-min Rain = 0
KVA1 081606Z 27015G21KT 24/M17 A3001 RMK A01 T02421165  RH  006%=      5-min Rain = 0
KVA1 081607Z 27011G17KT 24/M16 A3001 RMK A01 T02431163  RH  006%=      5-min Rain = 0
KVA1 081608Z 28012G19KT 25/M16 A3001 RMK A01 T02451161  RH  006%=      5-min Rain = 0
KVA1 081609Z 27013KT 25/M16 A3001 RMK A01 T02461161  RH  006%=      5-min Rain = 0
KVA1 081610Z 28013KT 25/M16 A3001 RMK A01 T02471161  RH  006%=      5-min Rain = 0
KVA1 081611Z 27015KT 25/M16 A3001 RMK A01 T02461162  RH  006%=      5-min Rain = 0
KVA1 081612Z 26012KT 24/M16 A3001 RMK A01 T02441163  RH  006%=      5-min Rain = 0
KVA1 081613Z 25013G18KT 24/M16 A30 RMK A01 T02441162  RH  006%=      5-min Rain = 0
KVA1 081614Z 26012KT 25/M16 A3001 RMK A01 T02451161  RH  006%=      5-min Rain = 0
KVA1 081615Z 27012KT 25/M16 A3001 RMK A01 T02461161  RH  006%=      5-min Rain = 0
KVA1 081616Z 28012KT 25/M16 A3001 RMK A01 T02471162  RH  006%=      5-min Rain = 0
KVA1 081617Z 28013KT 25/M16 A3001 RMK A01 T02471162  RH  006%=      5-min Rain = 0
KVA1 081618Z 28012KT 25/M16 A3001 RMK A01 T02461163  RH  006%=      5-min Rain = 0
KVA1 081619Z 28013KT 25/M16 A3001 RMK A01 T02471161  RH  006%=      5-min Rain = 0
KVA1 081620Z 27011KT 25/M16 A3001 RMK A01 T02481161  RH  006%=      5-min Rain = 0
KVA1 081621Z 27016KT 25/M16 A3001 RMK A01 T02481160  RH  006%=      5-min Rain = 0
KVA1 081622Z 27013KT 25/M16 A3001 RMK A01 T02491160  RH  006%=      5-min Rain = 0
KVA1 081623Z 27011KT 25/M16 A3001 RMK A01 T02491160  RH  006%=      5-min Rain = 0
KVA1 081624Z 27008KT 25/M16 A3001 RMK A01 T02501158  RH  006%=      5-min Rain = 0
KVA1 081625Z 27009KT 25/M16 A3001 RMK A01 T02521157  RH  006%=      5-min Rain = 0
KVA1 081626Z 29010KT 25/M16 A3001 RMK A01 T02531156  RH  006%=      5-min Rain = 0
KVA1 081627Z 29009KT 26/M16 A30 RMK A01 T02551157  RH  006%=      5-min Rain = 0
KVA1 081628Z 28009KT 25/M16 A30 RMK A01 T02531160  RH  005%=      5-min Rain = 0
KVA1 081629Z 28007G14KT 25/M16 A30 RMK A01 T02521159  RH  006%=      5-min Rain = 0
KVA1 081630Z 27012KT 25/M16 A30 RMK A01 T02541156  RH  006%=      5-min Rain = 0
KVA1 081631Z 29011KT 25/M16 A30 RMK A01 T02531158  RH  006%=      5-min Rain = 0
KVA1 081632Z 29010KT 25/M16 A30 RMK A01 T02511159  RH  006%=      5-min Rain = 0
KVA1 081633Z 28011KT 25/M16 A30 RMK A01 T02501158  RH  006%=      5-min Rain = 0
KVA1 081634Z 27010KT 25/M16 A30 RMK A01 T02521156  RH  006%=      5-min Rain = 0
KVA1 081635Z 27009KT 25/M16 A30 RMK A01 T02521158  RH  006%=      5-min Rain = 0
KVA1 081636Z 27008KT 25/M16 A30 RMK A01 T02531157  RH  006%=      5-min Rain = 0
KVA1 081637Z 24013KT 26/M16 A30 RMK A01 T02551156  RH  006%=      5-min Rain = 0
KVA1 081638Z 28010KT 26/M16 A30 RMK A01 T02551158  RH  005%=      5-min Rain = 0
KVA1 081639Z 27011KT 25/M16 A30 RMK A01 T02541158  RH  006%=      5-min Rain = 0
KVA1 081640Z 26011KT 25/M16 A30 RMK A01 T02541158  RH  006%=      5-min Rain = 0
KVA1 081641Z 26008KT 25/M16 A30 RMK A01 T02541158  RH  006%=      5-min Rain = 0
KVA1 081642Z 26010KT 26/M16 A30 RMK A01 T02551157  RH  006%=      5-min Rain = 0
KVA1 081643Z 26010KT 25/M16 A30 RMK A01 T02531158  RH  006%=      5-min Rain = 0
KVA1 081644Z 28008KT 26/M16 A30 RMK A01 T02561155  RH  006%=      5-min Rain = 0
KVA1 081645Z 27006KT 25/M16 A30 RMK A01 T02521159  RH  006%=      5-min Rain = 0
KVA1 081646Z 25010G15KT 25/M16 A30 RMK A01 T02511158  RH  006%=      5-min Rain = 0
KVA1 081647Z 27012KT 25/M16 A30 RMK A01 T02531156  RH  006%=      5-min Rain = 0
KVA1 081648Z 27007KT 25/M16 A30 RMK A01 T02521158  RH  006%=      5-min Rain = 0
KVA1 081649Z 24011G16KT 25/M16 A30 RMK A01 T02501158  RH  006%=      5-min Rain = 0
KVA1 081650Z 24010KT 25/M16 A30 RMK A01 T02521156  RH  006%=      5-min Rain = 0
KVA1 081651Z 25009KT 26/M16 A30 RMK A01 T02551155  RH  006%=      5-min Rain = 0
KVA1 081652Z 26012KT 26/M15 A30 RMK A01 T02581154  RH  006%=      5-min Rain = 0
KVA1 081653Z 26010KT 26/M16 A30 RMK A01 T02581156  RH  005%=      5-min Rain = 0
KVA1 081654Z 27008KT 26/M16 A30 RMK A01 T02561158  RH  005%=      5-min Rain = 0
KVA1 081655Z 26007KT 25/M16 A30 RMK A01 T02531160  RH  005%=      5-min Rain = 0
KVA1 081656Z 25008KT 25/M16 A30 RMK A01 T02521157  RH  006%=      5-min Rain = 0
KVA1 081657Z 25007KT 25/M16 A30 RMK A01 T02531156  RH  006%=      5-min Rain = 0
KVA1 081658Z 27012KT 26/M15 A30 RMK A01 T02581152  RH  006%=      5-min Rain = 0
KVA1 081659Z 29009KT 26/M16 A30 RMK A01 T02591155  RH  006%=      5-min Rain = 0
KVA1 081700Z 25009KT 26/M16 A30 RMK A01 T02581155  RH  006%=      5-min Rain = 0
KVA1 081701Z 24010KT 26/M16 A30 RMK A01 T02581155  RH  006%=      5-min Rain = 0
KVA1 081702Z 25007KT 26/M15 A2999 RMK A01 T02591154  RH  006%=      5-min Rain = 0
KVA1 081703Z 27008KT 26/M15 A2999 RMK A01 T02611153  RH  006%=      5-min Rain = 0
KVA1 081704Z 28007KT 26/M15 A2999 RMK A01 T02621154  RH  005%=      5-min Rain = 0
KVA1 081705Z 27008KT 26/M15 A2999 RMK A01 T02621154  RH  005%=      5-min Rain = 0
KVA1 081706Z 26010KT 26/M15 A2999 RMK A01 T02621154  RH  005%=      5-min Rain = 0
KVA1 081707Z 25011KT 26/M16 A2999 RMK A01 T02611156  RH  005%=      5-min Rain = 0
KVA1 081708Z 24008KT 26/M16 A2999 RMK A01 T02591157  RH  005%=      5-min Rain = 0
KVA1 081709Z 26007KT 26/M16 A2999 RMK A01 T02581155  RH  006%=      5-min Rain = 0
KVA1 081710Z 25010G15KT 26/M15 A2999 RMK A01 T02621151  RH  006%=      5-min Rain = 0
KVA1 081711Z 25014KT 27/M15 A2999 RMK A01 T02651152  RH  005%=      5-min Rain = 0
KVA1 081712Z 27012KT 26/M15 A2999 RMK A01 T02631154  RH  005%=      5-min Rain = 0
KVA1 081713Z 27011KT 26/M16 A2999 RMK A01 T02621155  RH  005%=      5-min Rain = 0
KVA1 081714Z 27010KT 26/M16 A2999 RMK A01 T02611156  RH  005%=      5-min Rain = 0
KVA1 081715Z 26008KT 26/M15 A2999 RMK A01 T02611154  RH  005%=      5-min Rain = 0
KVA1 081716Z 24010KT 26/M15 A2999 RMK A01 T02621152  RH  006%=      5-min Rain = 0
KVA1 081717Z 25010KT 26/M15 A2999 RMK A01 T02621154  RH  005%=      5-min Rain = 0
KVA1 081718Z 26009KT 26/M15 A2999 RMK A01 T02621154  RH  005%=      5-min Rain = 0
KVA1 081719Z 26005KT 26/M15 A2999 RMK A01 T02621154  RH  005%=      5-min Rain = 0
KVA1 081720Z 24006KT 26/M15 A2999 RMK A01 T02621153  RH  006%=      5-min Rain = 0
KVA1 081721Z 25008KT 27/M15 A2999 RMK A01 T02661149  RH  006%=      5-min Rain = 0
KVA1 081722Z 28010KT 27/M15 A2999 RMK A01 T02681151  RH  005%=      5-min Rain = 0
KVA1 081723Z 28009KT 27/M15 A2999 RMK A01 T02681151  RH  005%=      5-min Rain = 0
KVA1 081724Z 27009KT 27/M15 A2999 RMK A01 T02711147  RH  005%=      5-min Rain = 0
KVA1 081725Z 29009G14KT 27/M15 A2999 RMK A01 T02731147  RH  005%=      5-min Rain = 0
KVA1 081726Z 28011G17KT 27/M15 A2999 RMK A01 T02731147  RH  005%=      5-min Rain = 0
KVA1 081727Z 29012KT 27/M15 A2999 RMK A01 T02721149  RH  005%=      5-min Rain = 0
KVA1 081728Z 29010KT 27/M15 A2999 RMK A01 T02681149  RH  005%=      5-min Rain = 0
KVA1 081729Z 29011G16KT 27/M15 A2999 RMK A01 T02691146  RH  006%=      5-min Rain = 0
KVA1 081730Z 29011KT 27/M15 A2999 RMK A01 T02681149  RH  005%=      5-min Rain = 0
KVA1 081731Z 29010KT 27/M15 A2999 RMK A01 T02651151  RH  006%=      5-min Rain = 0
KVA1 081732Z 29008KT 26/M15 A2999 RMK A01 T02631150  RH  006%=      5-min Rain = 0
KVA1 081733Z 30009KT 26/M15 A2999 RMK A01 T02641148  RH  006%=      5-min Rain = 0
KVA1 081734Z 29008KT 27/M15 A2999 RMK A01 T02671146  RH  006%=      5-min Rain = 0
KVA1 081735Z 28011KT 27/M15 A2999 RMK A01 T02691145  RH  006%=      5-min Rain = 0
KVA1 081736Z 27013KT 27/M15 A2999 RMK A01 T02701146  RH  006%=      5-min Rain = 0
KVA1 081737Z 27014KT 27/M15 A2999 RMK A01 T02711147  RH  005%=      5-min Rain = 0
KVA1 081738Z 27012KT 27/M15 A2999 RMK A01 T02691148  RH  005%=      5-min Rain = 0
KVA1 081739Z 26011KT 27/M15 A2999 RMK A01 T02691148  RH  006%=      5-min Rain = 0
KVA1 081740Z 26010KT 27/M15 A2999 RMK A01 T02701147  RH  006%=      5-min Rain = 0
KVA1 081741Z 26011KT 27/M15 A2999 RMK A01 T02701147  RH  006%=      5-min Rain = 0
KVA1 081742Z 25010KT 27/M15 A2998 RMK A01 T02691146  RH  006%=      5-min Rain = 0
KVA1 081743Z 25010KT 27/M14 A2998 RMK A01 T02731143  RH  006%=      5-min Rain = 0
KVA1 081744Z 27013KT 28/M14 A2998 RMK A01 T02751144  RH  006%=      5-min Rain = 0
KVA1 081745Z 27012KT 28/M14 A2998 RMK A01 T02761142  RH  006%=      5-min Rain = 0
KVA1 081746Z 25017G24KT 28/M14 A2998 RMK A01 T02771143  RH  005%=      5-min Rain = 0
KVA1 081747Z 25014G21KT 27/M15 A2998 RMK A01 T02741146  RH  005%=      5-min Rain = 0
KVA1 081748Z 26013G18KT 27/M15 A2998 RMK A01 T02721145  RH  006%=      5-min Rain = 0
KVA1 081749Z 25011KT 27/M15 A2998 RMK A01 T02701145  RH  006%=      5-min Rain = 0
KVA1 081750Z 24012KT 27/M14 A2998 RMK A01 T02701143  RH  006%=      5-min Rain = 0
KVA1 081751Z 24013KT 27/M14 A2998 RMK A01 T02721140  RH  006%=      5-min Rain = 0
KVA1 081752Z 27014KT 28/M14 A2998 RMK A01 T02751138  RH  006%=      5-min Rain = 0
KVA1 081753Z 27016KT 28/M14 A2998 RMK A01 T02771137  RH  006%=      5-min Rain = 0
KVA1 081754Z 27013KT 28/M14 A2998 RMK A01 T02751139  RH  006%=      5-min Rain = 0
KVA1 081755Z 29010KT 27/M14 A2998 RMK A01 T02731141  RH  006%=      5-min Rain = 0
KVA1 081756Z 28010KT 27/M14 A2998 RMK A01 T02721141  RH  006%=      5-min Rain = 0
KVA1 081757Z 28011KT 28/M14 A2998 RMK A01 T02761136  RH  006%=      5-min Rain = 0
KVA1 081758Z 28009KT 27/M14 A2998 RMK A01 T02741139  RH  006%=      5-min Rain = 0
KVA1 081759Z 29009G15KT 27/M14 A2998 RMK A01 T02741136  RH  006%=      5-min Rain = 0
KVA1 081800Z 29013KT 28/M13 A2998 RMK A01 T02771132  RH  006%=      5-min Rain = 0
KVA1 081801Z 31014G19KT 28/M13 A2997 RMK A01 T02771133  RH  006%=      5-min Rain = 0
KVA1 081802Z 29011G17KT 27/M14 A2997 RMK A01 T02741135  RH  006%=      5-min Rain = 0
KVA1 081803Z 26010KT 27/M13 A2998 RMK A01 T02741133  RH  006%=      5-min Rain = 0
KVA1 081804Z 26011KT 28/M13 A2997 RMK A01 T02751132  RH  006%=      5-min Rain = 0
KVA1 081805Z 25015G22KT 28/M13 A2997 RMK A01 T02771130  RH  006%=      5-min Rain = 0
KVA1 081806Z 25016G21KT 28/M13 A2997 RMK A01 T02791129  RH  006%=      5-min Rain = 0
KVA1 081807Z 25017G23KT 28/M13 A2997 RMK A01 T02771130  RH  006%=      5-min Rain = 0
KVA1 081808Z 25014G20KT 27/M13 A2997 RMK A01 T02741130  RH  006%=      5-min Rain = 0
KVA1 081809Z 25016KT 27/M13 A2997 RMK A01 T02741128  RH  006%=      5-min Rain = 0
KVA1 081810Z 27015KT 27/M13 A2997 RMK A01 T02741128  RH  006%=      5-min Rain = 0
KVA1 081811Z 26009KT 27/M13 A2997 RMK A01 T02701128  RH  006%=      5-min Rain = 0
KVA1 081812Z 23011G18KT 27/M13 A2997 RMK A01 T02721127  RH  006%=      5-min Rain = 0
KVA1 081813Z 25013G18KT 28/M12 A2997 RMK A01 T02771123  RH  006%=      5-min Rain = 0
KVA1 081814Z 24017G22KT 28/M12 A2997 RMK A01 T02801121  RH  006%=      5-min Rain = 0
KVA1 081815Z 25017KT 28/M12 A2997 RMK A01 T02801123  RH  006%=      5-min Rain = 0
KVA1 081816Z 24016KT 28/M12 A2997 RMK A01 T02791124  RH  006%=      5-min Rain = 0
KVA1 081817Z 26012KT 28/M12 A2997 RMK A01 T02781124  RH  006%=      5-min Rain = 0
KVA1 081818Z 25009KT 28/M12 A2997 RMK A01 T02771124  RH  006%=      5-min Rain = 0
KVA1 081819Z 24007KT 28/M12 A2997 RMK A01 T02751123  RH  006%=      5-min Rain = 0
KVA1 081820Z 25007KT 28/M12 A2997 RMK A01 T02751121  RH  007%=      5-min Rain = 0
KVA1 081821Z 26010G15KT 28/M12 A2997 RMK A01 T02771120  RH  007%=      5-min Rain = 0
KVA1 081822Z 24014KT 28/M12 A2996 RMK A01 T02781119  RH  007%=      5-min Rain = 0
KVA1 081823Z 23014G19KT 28/M12 A2996 RMK A01 T02791118  RH  007%=      5-min Rain = 0
KVA1 081824Z 24012KT 28/M12 A2996 RMK A01 T02771119  RH  007%=      5-min Rain = 0
KVA1 081825Z 23011KT 28/M12 A2996 RMK A01 T02761119  RH  007%=      5-min Rain = 0
KVA1 081826Z 25013KT 28/M11 A2996 RMK A01 T02771113  RH  007%=      5-min Rain = 0
KVA1 081827Z 27007G13KT 28/M11 A2996 RMK A01 T02781112  RH  007%=      5-min Rain = 0
KVA1 081828Z 29012KT 28/M11 A2996 RMK A01 T02781109  RH  007%=      5-min Rain = 0
KVA1 081829Z 26015G21KT 28/M11 A2996 RMK A01 T02801111  RH  007%=      5-min Rain = 0
KVA1 081830Z 27017G23KT 28/M11 A2996 RMK A01 T02821105  RH  007%=      5-min Rain = 0
KVA1 081831Z 26017G23KT 28/M11 A2996 RMK A01 T02801107  RH  007%=      5-min Rain = 0
KVA1 081832Z 26013G18KT 28/M11 A2996 RMK A01 T02761109  RH  007%=      5-min Rain = 0
KVA1 081833Z 26015KT 28/M11 A2996 RMK A01 T02781106  RH  007%=      5-min Rain = 0
KVA1 081834Z 28012G19KT 28/M11 A2996 RMK A01 T02781108  RH  007%=      5-min Rain = 0
KVA1 081835Z 27013KT 28/M11 A2996 RMK A01 T02781108  RH  007%=      5-min Rain = 0
KVA1 081836Z 27011KT 28/M11 A2996 RMK A01 T02751110  RH  007%=      5-min Rain = 0
KVA1 081837Z 25008KT 28/M11 A2996 RMK A01 T02751106  RH  007%=      5-min Rain = 0
KVA1 081838Z 27011KT 28/M11 A2996 RMK A01 T02811105  RH  007%=      5-min Rain = 0
KVA1 081839Z 30013KT 28/M11 A2996 RMK A01 T02831105  RH  007%=      5-min Rain = 0
KVA1 081840Z 28012KT 28/M11 A2996 RMK A01 T02811107  RH  007%=      5-min Rain = 0
KVA1 081841Z 27012G21KT 28/M11 A2996 RMK A01 T02761108  RH  007%=      5-min Rain = 0
KVA1 081842Z 28020KT 28/M10 A2996 RMK A01 T02771100  RH  008%=      5-min Rain = 0
KVA1 081843Z 29016G22KT 28/M10 A2996 RMK A01 T02791095  RH  008%=      5-min Rain = 0
KVA1 081844Z 27015KT 28/M10 A2996 RMK A01 T02791095  RH  008%=      5-min Rain = 0
KVA1 081845Z 28015KT 28/M10 A2996 RMK A01 T02801096  RH  008%=      5-min Rain = 0
KVA1 081846Z 28013G18KT 28/M10 A2996 RMK A01 T02801097  RH  008%=      5-min Rain = 0
KVA1 081847Z 27016KT 28/M10 A2995 RMK A01 T02811095  RH  008%=      5-min Rain = 0
KVA1 081848Z 28013G19KT 28/M10 A2995 RMK A01 T02791098  RH  008%=      5-min Rain = 0
KVA1 081849Z 27011G16KT 28/M10 A2995 RMK A01 T02801097  RH  008%=      5-min Rain = 0
KVA1 081850Z 28012G17KT 28/M10 A2995 RMK A01 T02831098  RH  008%=      5-min Rain = 0
KVA1 081851Z 27014G21KT 28/M10 A2995 RMK A01 T02841097  RH  008%=      5-min Rain = 0
KVA1 081852Z 28011G16KT 28/M10 A2995 RMK A01 T02831098  RH  008%=      5-min Rain = 0
KVA1 081853Z 28016KT 28/M10 A2995 RMK A01 T02801098  RH  008%=      5-min Rain = 0
KVA1 081854Z 29015G20KT 28/M10 A2995 RMK A01 T02791101  RH  008%=      5-min Rain = 0
KVA1 081855Z 29015KT 28/M10 A2995 RMK A01 T02791102  RH  008%=      5-min Rain = 0
KVA1 081856Z 28018G25KT 28/M10 A2994 RMK A01 T02811103  RH  007%=      5-min Rain = 0
KVA1 081857Z 28016G23KT 28/M11 A2994 RMK A01 T02811105  RH  007%=      5-min Rain = 0
KVA1 081858Z 29018KT 28/M11 A2994 RMK A01 T02831106  RH  007%=      5-min Rain = 0
KVA1 081859Z 29019KT 28/M11 A2994 RMK A01 T02831108  RH  007%=      5-min Rain = 0
KVA1 081900Z 28016G21KT 28/M11 A2994 RMK A01 T02801110  RH  007%=      5-min Rain = 0
KVA1 081901Z 28014G19KT 28/M11 A2994 RMK A01 T02811109  RH  007%=      5-min Rain = 0
KVA1 081902Z 29009KT 28/M11 A2994 RMK A01 T02821109  RH  007%=      5-min Rain = 0
KVA1 081903Z 30016G21KT 28/M11 A2994 RMK A01 T02821111  RH  007%=      5-min Rain = 0
KVA1 081904Z 30019G24KT 28/M11 A2994 RMK A01 T02821112  RH  007%=      5-min Rain = 0
KVA1 081905Z 29016G22KT 28/M11 A2994 RMK A01 T02811112  RH  007%=      5-min Rain = 0
KVA1 081906Z 31011G18KT 28/M11 A2994 RMK A01 T02801113  RH  007%=      5-min Rain = 0
KVA1 081907Z 31013KT 28/M11 A2994 RMK A01 T02811111  RH  007%=      5-min Rain = 0
KVA1 081908Z 28013G19KT 28/M11 A2994 RMK A01 T02821112  RH  007%=      5-min Rain = 0
KVA1 081909Z 28017G23KT 28/M11 A2994 RMK A01 T02821112  RH  007%=      5-min Rain = 0
KVA1 081910Z 28019KT 28/M11 A2994 RMK A01 T02831112  RH  007%=      5-min Rain = 0
KVA1 081911Z 28015KT 28/M11 A2994 RMK A01 T02831113  RH  007%=      5-min Rain = 0
KVA1 081912Z 28015KT 28/M11 A2994 RMK A01 T02821112  RH  007%=      5-min Rain = 0
KVA1 081913Z 28018KT 28/M11 A2993 RMK A01 T02801113  RH  007%=      5-min Rain = 0
KVA1 081914Z 28019G25KT 28/M11 A2993 RMK A01 T02811109  RH  007%=      5-min Rain = 0
KVA1 081915Z 29019KT 28/M11 A2993 RMK A01 T02821109  RH  007%=      5-min Rain = 0
KVA1 081916Z 28016KT 28/M11 A2993 RMK A01 T02811111  RH  007%=      5-min Rain = 0
KVA1 081917Z 30014KT 28/M11 A2993 RMK A01 T02821109  RH  007%=      5-min Rain = 0
KVA1 081918Z 31011KT 28/M11 A2993 RMK A01 T02821110  RH  007%=      5-min Rain = 0
KVA1 081919Z 30011G18KT 28/M11 A2993 RMK A01 T02811109  RH  007%=      5-min Rain = 0
KVA1 081920Z 30014KT 28/M11 A2993 RMK A01 T02821107  RH  007%=      5-min Rain = 0
KVA1 081921Z 31014KT 28/M11 A2993 RMK A01 T02831107  RH  007%=      5-min Rain = 0
KVA1 081922Z 30014KT 28/M11 A2993 RMK A01 T02821107  RH  007%=      5-min Rain = 0
KVA1 081923Z 28012G18KT 28/M11 A2993 RMK A01 T02821108  RH  007%=      5-min Rain = 0
KVA1 081924Z 28013KT 29/M11 A2993 RMK A01 T02861105  RH  007%=      5-min Rain = 0
KVA1 081925Z 27012KT 29/M11 A2993 RMK A01 T02861106  RH  007%=      5-min Rain = 0
KVA1 081926Z 27007KT 28/M11 A2993 RMK A01 T02841106  RH  007%=      5-min Rain = 0
KVA1 081927Z 28014KT 29/M10 A2993 RMK A01 T02861104  RH  007%=      5-min Rain = 0
KVA1 081928Z 28012KT 29/M11 A2993 RMK A01 T02851105  RH  007%=      5-min Rain = 0
KVA1 081929Z 27011KT 28/M11 A2992 RMK A01 T02831105  RH  007%=      5-min Rain = 0
KVA1 081930Z 27012KT 29/M10 A2992 RMK A01 T02851103  RH  007%=      5-min Rain = 0
KVA1 081931Z 27013G18KT 29/M10 A2992 RMK A01 T02901100  RH  007%=      5-min Rain = 0
KVA1 081932Z 28016KT 29/M10 A2992 RMK A01 T02931101  RH  007%=      5-min Rain = 0
KVA1 081933Z 28014KT 29/M10 A2992 RMK A01 T02911103  RH  007%=      5-min Rain = 0
KVA1 081934Z 28010KT 29/M10 A2992 RMK A01 T02891102  RH  007%=      5-min Rain = 0
KVA1 081935Z 27013G18KT 29/M10 A2992 RMK A01 T02891100  RH  007%=      5-min Rain = 0
KVA1 081936Z 26017G24KT 29/M10 A2992 RMK A01 T02911099  RH  007%=      5-min Rain = 0
KVA1 081937Z 25019G24KT 29/M10 A2992 RMK A01 T02941098  RH  007%=      5-min Rain = 0
KVA1 081938Z 25014G21KT 29/M10 A2992 RMK A01 T02931101  RH  007%=      5-min Rain = 0
KVA1 081939Z 26016G22KT 29/M10 A2992 RMK A01 T02941100  RH  007%=      5-min Rain = 0
KVA1 081940Z 26019KT 30/M10 A2992 RMK A01 T02951101  RH  007%=      5-min Rain = 0
KVA1 081941Z 26018KT 29/M10 A2992 RMK A01 T02921102  RH  007%=      5-min Rain = 0
KVA1 081942Z 25015KT 29/M10 A2992 RMK A01 T02891102  RH  007%=      5-min Rain = 0
KVA1 081943Z 26015G21KT 29/M10 A2992 RMK A01 T02881102  RH  007%=      5-min Rain = 0
KVA1 081944Z 25016KT 29/M10 A2992 RMK A01 T02911101  RH  007%=      5-min Rain = 0
KVA1 081945Z 26018KT 30/M10 A2992 RMK A01 T02961099  RH  007%=      5-min Rain = 0
KVA1 081946Z 25016G21KT 30/M10 A2992 RMK A01 T02971099  RH  007%=      5-min Rain = 0
KVA1 081947Z 27016G22KT 30/M10 A2992 RMK A01 T02961101  RH  007%=      5-min Rain = 0
KVA1 081948Z 28017G23KT 30/M10 A2992 RMK A01 T02961101  RH  007%=      5-min Rain = 0
KVA1 081949Z 29017KT 30/M10 A2992 RMK A01 T02951101  RH  007%=      5-min Rain = 0
KVA1 081950Z 29016KT 29/M10 A2992 RMK A01 T02931103  RH  007%=      5-min Rain = 0
KVA1 081951Z 28011KT 29/M10 A2992 RMK A01 T02931102  RH  007%=      5-min Rain = 0
KVA1 081952Z 27016G21KT 30/M10 A2992 RMK A01 T02971099  RH  007%=      5-min Rain = 0
KVA1 081953Z 28014KT 30/M10 A2992 RMK A01 T02981100  RH  007%=      5-min Rain = 0
KVA1 081954Z 27013KT 29/M10 A2992 RMK A01 T02941103  RH  007%=      5-min Rain = 0
KVA1 081955Z 27017KT 29/M10 A2992 RMK A01 T02931100  RH  007%=      5-min Rain = 0
KVA1 081956Z 26020G25KT 29/M10 A2992 RMK A01 T02941099  RH  007%=      5-min Rain = 0
KVA1 081957Z 25016G21KT 29/M10 A2992 RMK A01 T02931100  RH  007%=      5-min Rain = 0
KVA1 081958Z 25018G24KT 29/M10 A2992 RMK A01 T02931100  RH  007%=      5-min Rain = 0
KVA1 081959Z 24015G20KT 29/M10 A2991 RMK A01 T02941099  RH  007%=      5-min Rain = 0
KVA1 082000Z 24014KT 30/M10 A2991 RMK A01 T02961097  RH  007%=      5-min Rain = 0
KVA1 082001Z 26013G19KT 30/M09 A2991 RMK A01 T02971094  RH  007%=      5-min Rain = 0
KVA1 082002Z 26014KT 30/M09 A2991 RMK A01 T02991093  RH  007%=      5-min Rain = 0
KVA1 082003Z 26022G27KT 30/M09 A2991 RMK A01 T03021094  RH  007%=      5-min Rain = 0
KVA1 082004Z 27019KT 30/M10 A2992 RMK A01 T02971098  RH  007%=      5-min Rain = 0
KVA1 082005Z 28015G20KT 29/M10 A2991 RMK A01 T02931099  RH  007%=      5-min Rain = 0
KVA1 082006Z 28015KT 29/M10 A2991 RMK A01 T02901098  RH  007%=      5-min Rain = 0
KVA1 082007Z 27013G21KT 29/M10 A2991 RMK A01 T02901098  RH  007%=      5-min Rain = 0
KVA1 082008Z 27014G21KT 29/M10 A2991 RMK A01 T02931096  RH  007%=      5-min Rain = 0
KVA1 082009Z 27016G21KT 30/M10 A2991 RMK A01 T02971096  RH  007%=      5-min Rain = 0
KVA1 082010Z 28013G19KT 30/M10 A2991 RMK A01 T02961097  RH  007%=      5-min Rain = 0
KVA1 082011Z 28015KT 29/M10 A2991 RMK A01 T02941098  RH  007%=      5-min Rain = 0
KVA1 082012Z 28016G21KT 29/M10 A2991 RMK A01 T02931096  RH  007%=      5-min Rain = 0
KVA1 082013Z 28015KT 29/M10 A299 RMK A01 T02941095  RH  007%=      5-min Rain = 0
KVA1 082014Z 25018KT 30/M10 A299 RMK A01 T02951095  RH  007%=      5-min Rain = 0
KVA1 082015Z 25017KT 30/M10 A299 RMK A01 T02971096  RH  007%=      5-min Rain = 0
KVA1 082016Z 25015G20KT 30/M10 A299 RMK A01 T02971095  RH  007%=      5-min Rain = 0
KVA1 082017Z 27015G22KT 30/M10 A299 RMK A01 T02981095  RH  007%=      5-min Rain = 0
KVA1 082018Z 25016KT 30/M10 A299 RMK A01 T02971095  RH  007%=      5-min Rain = 0
KVA1 082019Z 25015KT 30/M09 A299 RMK A01 T02981093  RH  007%=      5-min Rain = 0
KVA1 082020Z 25013G18KT 30/M09 A299 RMK A01 T02951094  RH  007%=      5-min Rain = 0
KVA1 082021Z 26016G23KT 30/M09 A299 RMK A01 T02951094  RH  007%=      5-min Rain = 0
KVA1 082022Z 26016KT 30/M09 A299 RMK A01 T02961093  RH  007%=      5-min Rain = 0
KVA1 082023Z 26011KT 30/M09 A299 RMK A01 T02961093  RH  007%=      5-min Rain = 0
KVA1 082024Z 27013KT 30/M09 A299 RMK A01 T02981092  RH  007%=      5-min Rain = 0
KVA1 082025Z 29015KT 30/M09 A299 RMK A01 T02981094  RH  007%=      5-min Rain = 0
KVA1 082026Z 30018G23KT 30/M10 A299 RMK A01 T02961095  RH  007%=      5-min Rain = 0
KVA1 082027Z 28018KT 29/M10 A299 RMK A01 T02931095  RH  007%=      5-min Rain = 0
KVA1 082028Z 28020G25KT 29/M09 A299 RMK A01 T02931092  RH  007%=      5-min Rain = 0
KVA1 082029Z 28018KT 29/M09 A299 RMK A01 T02941092  RH  007%=      5-min Rain = 0
KVA1 082030Z 27017KT 29/M10 A299 RMK A01 T02921095  RH  007%=      5-min Rain = 0
KVA1 082031Z 28015G22KT 29/M10 A299 RMK A01 T02891096  RH  007%=      5-min Rain = 0
KVA1 082032Z 27013G19KT 29/M09 A299 RMK A01 T02881094  RH  008%=      5-min Rain = 0
KVA1 082033Z 28018KT 29/M09 A299 RMK A01 T02911092  RH  008%=      5-min Rain = 0
KVA1 082034Z 28016KT 29/M09 A299 RMK A01 T02911092  RH  008%=      5-min Rain = 0
KVA1 082035Z 27017G23KT 29/M09 A299 RMK A01 T02901093  RH  008%=      5-min Rain = 0
KVA1 082036Z 28014G19KT 29/M09 A2989 RMK A01 T02931091  RH  008%=      5-min Rain = 0
KVA1 082037Z 28017KT 30/M09 A2989 RMK A01 T02951092  RH  007%=      5-min Rain = 0
KVA1 082038Z 27018G25KT 30/M09 A299 RMK A01 T02961091  RH  007%=      5-min Rain = 0
KVA1 082039Z 27015KT 30/M09 A2989 RMK A01 T02951092  RH  007%=      5-min Rain = 0
KVA1 082040Z 27012G18KT 29/M09 A2989 RMK A01 T02921093  RH  008%=      5-min Rain = 0
KVA1 082041Z 25018G26KT 29/M09 A2989 RMK A01 T02901092  RH  008%=      5-min Rain = 0
KVA1 082042Z 25021G29KT 30/M09 A2989 RMK A01 T02951089  RH  008%=      5-min Rain = 0
KVA1 082043Z 26023G29KT 30/M09 A2989 RMK A01 T02951090  RH  007%=      5-min Rain = 0
KVA1 082044Z 27017KT 29/M09 A2989 RMK A01 T02941089  RH  008%=      5-min Rain = 0
KVA1 082045Z 27016KT 30/M09 A2989 RMK A01 T02961087  RH  008%=      5-min Rain = 0
KVA1 082046Z 28017G22KT 30/M09 A2989 RMK A01 T02951088  RH  008%=      5-min Rain = 0
KVA1 082047Z 29017G23KT 29/M09 A2989 RMK A01 T02941088  RH  008%=      5-min Rain = 0
KVA1 082048Z 28016KT 30/M09 A2989 RMK A01 T02951088  RH  008%=      5-min Rain = 0
KVA1 082049Z 26019G24KT 30/M09 A2989 RMK A01 T02961090  RH  007%=      5-min Rain = 0
KVA1 082050Z 27017G22KT 29/M09 A2989 RMK A01 T02941090  RH  008%=      5-min Rain = 0
KVA1 082051Z 26015G21KT 29/M09 A2989 RMK A01 T02941089  RH  008%=      5-min Rain = 0
KVA1 082052Z 27018G24KT 30/M09 A2989 RMK A01 T02971086  RH  008%=      5-min Rain = 0
KVA1 082053Z 28019G25KT 30/M09 A2989 RMK A01 T03021085  RH  008%=      5-min Rain = 0
KVA1 082054Z 28019G24KT 30/M09 A2989 RMK A01 T03021086  RH  007%=      5-min Rain = 0
KVA1 082055Z 29016KT 30/M09 A2988 RMK A01 T02991088  RH  007%=      5-min Rain = 0
KVA1 082056Z 29015G20KT 30/M09 A2988 RMK A01 T02991090  RH  007%=      5-min Rain = 0
KVA1 082057Z 27018KT 30/M09 A2988 RMK A01 T02981092  RH  007%=      5-min Rain = 0
KVA1 082058Z 28019G24KT 30/M09 A2989 RMK A01 T02971090  RH  007%=      5-min Rain = 0
KVA1 082059Z 27015G21KT 30/M09 A2988 RMK A01 T02981091  RH  007%=      5-min Rain = 0
KVA1 082100Z 28017G22KT 30/M09 A2988 RMK A01 T02981092  RH  007%=      5-min Rain = 0
KVA1 082101Z 28017KT 30/M09 A2988 RMK A01 T02971093  RH  007%=      5-min Rain = 0
KVA1 082102Z 27012KT 30/M09 A2988 RMK A01 T02961093  RH  007%=      5-min Rain = 0
KVA1 082103Z 28012KT 30/M09 A2988 RMK A01 T02971090  RH  007%=      5-min Rain = 0
KVA1 082104Z 28011KT 30/M09 A2988 RMK A01 T02991090  RH  007%=      5-min Rain = 0
KVA1 082105Z 29013G24KT 30/M09 A2988 RMK A01 T02961093  RH  007%=      5-min Rain = 0
KVA1 082106Z 29019KT 30/M09 A2988 RMK A01 T02961091  RH  007%=      5-min Rain = 0
KVA1 082107Z 27014KT 30/M09 A2988 RMK A01 T02971090  RH  007%=      5-min Rain = 0
KVA1 082108Z 27017KT 30/M09 A2988 RMK A01 T02971090  RH  007%=      5-min Rain = 0
KVA1 082109Z 28016G21KT 30/M09 A2988 RMK A01 T02981090  RH  007%=      5-min Rain = 0
KVA1 082110Z 29020G25KT 30/M09 A2988 RMK A01 T02981090  RH  007%=      5-min Rain = 0
KVA1 082111Z 27019G24KT 30/M09 A2987 RMK A01 T02991089  RH  007%=      5-min Rain = 0
KVA1 082112Z 27018KT 30/M09 A2988 RMK A01 T03011090  RH  007%=      5-min Rain = 0
KVA1 082113Z 27018KT 30/M09 A2988 RMK A01 T02981092  RH  007%=      5-min Rain = 0
KVA1 082114Z 26014KT 30/M09 A2987 RMK A01 T02961093  RH  007%=      5-min Rain = 0
KVA1 082115Z 27013G20KT 30/M09 A2987 RMK A01 T02961093  RH  007%=      5-min Rain = 0
KVA1 082116Z 27013KT 30/M09 A2987 RMK A01 T02981090  RH  007%=      5-min Rain = 0
KVA1 082117Z 25011KT 30/M09 A2987 RMK A01 T03011089  RH  007%=      5-min Rain = 0
KVA1 082118Z 24008G13KT 30/M09 A2987 RMK A01 T03041090  RH  007%=      5-min Rain = 0
KVA1 082119Z 23010KT 31/M09 A2986 RMK A01 T03051091  RH  007%=      5-min Rain = 0
KVA1 082120Z 26012KT 30/M09 A2987 RMK A01 T03021092  RH  007%=      5-min Rain = 0
KVA1 082121Z 25017G24KT 30/M09 A2986 RMK A01 T03021091  RH  007%=      5-min Rain = 0
KVA1 082122Z 25020KT 30/M09 A2987 RMK A01 T03041090  RH  007%=      5-min Rain = 0
KVA1 082123Z 25017G22KT 30/M09 A2986 RMK A01 T03041090  RH  007%=      5-min Rain = 0
KVA1 082124Z 24015G21KT 30/M09 A2986 RMK A01 T03031090  RH  007%=      5-min Rain = 0
KVA1 082125Z 26016KT 30/M09 A2986 RMK A01 T03021091  RH  007%=      5-min Rain = 0
KVA1 082126Z 26014KT 30/M09 A2986 RMK A01 T02991092  RH  007%=      5-min Rain = 0
KVA1 082127Z 25009KT 30/M09 A2986 RMK A01 T02981092  RH  007%=      5-min Rain = 0
KVA1 082128Z 26013KT 30/M09 A2986 RMK A01 T02981092  RH  007%=      5-min Rain = 0
KVA1 082129Z 26011G16KT 30/M09 A2986 RMK A01 T03021089  RH  007%=      5-min Rain = 0
KVA1 082130Z 28010G15KT 31/M09 A2986 RMK A01 T03051088  RH  007%=      5-min Rain = 0
KVA1 082131Z 29013G21KT 31/M09 A2986 RMK A01 T03071089  RH  007%=      5-min Rain = 0
KVA1 082132Z 28022KT 31/M09 A2986 RMK A01 T03051090  RH  007%=      5-min Rain = 0
KVA1 082133Z 26020KT 30/M09 A2986 RMK A01 T03031091  RH  007%=      5-min Rain = 0
KVA1 082134Z 27012KT 30/M09 A2986 RMK A01 T03011092  RH  007%=      5-min Rain = 0
KVA1 082135Z 28014KT 30/M09 A2986 RMK A01 T03011090  RH  007%=      5-min Rain = 0
KVA1 082136Z 27014G19KT 30/M09 A2986 RMK A01 T03021089  RH  007%=      5-min Rain = 0
KVA1 082137Z 26016KT 30/M09 A2986 RMK A01 T03031089  RH  007%=      5-min Rain = 0
KVA1 082138Z 25018G24KT 30/M09 A2986 RMK A01 T03031089  RH  007%=      5-min Rain = 0
KVA1 082139Z 27017G24KT 31/M09 A2986 RMK A01 T03051089  RH  007%=      5-min Rain = 0
KVA1 082140Z 28016KT 31/M09 A2986 RMK A01 T03051088  RH  007%=      5-min Rain = 0
KVA1 082141Z 27013KT 31/M09 A2986 RMK A01 T03061088  RH  007%=      5-min Rain = 0
KVA1 082142Z 28012KT 31/M09 A2985 RMK A01 T03081087  RH  007%=      5-min Rain = 0
KVA1 082143Z 25013G20KT 31/M09 A2985 RMK A01 T03101087  RH  007%=      5-min Rain = 0
KVA1 082144Z 26014G19KT 31/M09 A2986 RMK A01 T03111087  RH  007%=      5-min Rain = 0
KVA1 082145Z 27011KT 31/M09 A2985 RMK A01 T03081091  RH  007%=      5-min Rain = 0
KVA1 082146Z 28012G17KT 30/M09 A2985 RMK A01 T03031092  RH  007%=      5-min Rain = 0
KVA1 082147Z 27013KT 30/M09 A2985 RMK A01 T03031089  RH  007%=      5-min Rain = 0
KVA1 082148Z 27012KT 30/M09 A2985 RMK A01 T03041089  RH  007%=      5-min Rain = 0
KVA1 082149Z 26017G25KT 30/M09 A2985 RMK A01 T03041088  RH  007%=      5-min Rain = 0
KVA1 082150Z 27019G24KT 30/M09 A2985 RMK A01 T03031088  RH  007%=      5-min Rain = 0
KVA1 082151Z 28015KT 30/M09 A2985 RMK A01 T03011086  RH  008%=      5-min Rain = 0
KVA1 082152Z 27019G24KT 30/M08 A2985 RMK A01 T03021084  RH  008%=      5-min Rain = 0
KVA1 082153Z 28023G28KT 30/M08 A2985 RMK A01 T03021083  RH  008%=      5-min Rain = 0
KVA1 082154Z 28017G22KT 30/M09 A2985 RMK A01 T02981085  RH  008%=      5-min Rain = 0
KVA1 082155Z 28018G24KT 30/M09 A2985 RMK A01 T02971085  RH  008%=      5-min Rain = 0
KVA1 082156Z 28019KT 30/M08 A2985 RMK A01 T02961084  RH  008%=      5-min Rain = 0
KVA1 082157Z 28018KT 30/M08 A2985 RMK A01 T02951084  RH  008%=      5-min Rain = 0
KVA1 082158Z 27013G18KT 29/M08 A2985 RMK A01 T02941083  RH  008%=      5-min Rain = 0
KVA1 082159Z 26015G20KT 30/M08 A2985 RMK A01 T02951084  RH  008%=      5-min Rain = 0
KVA1 082200Z 26015G21KT 30/M09 A2985 RMK A01 T02961085  RH  008%=      5-min Rain = 0
KVA1 082201Z 26014KT 30/M09 A2985 RMK A01 T02961085  RH  008%=      5-min Rain = 0
KVA1 082202Z 27015G20KT 30/M08 A2985 RMK A01 T02981084  RH  008%=      5-min Rain = 0
KVA1 082203Z 27021KT 30/M09 A2985 RMK A01 T02981086  RH  008%=      5-min Rain = 0
KVA1 082204Z 28018KT 30/M09 A2985 RMK A01 T02961087  RH  008%=      5-min Rain = 0
KVA1 082205Z 27019G24KT 30/M09 A2985 RMK A01 T02951089  RH  008%=      5-min Rain = 0
KVA1 082206Z 27022KT 29/M09 A2985 RMK A01 T02941088  RH  008%=      5-min Rain = 0
KVA1 082207Z 27018G23KT 30/M09 A2985 RMK A01 T02951087  RH  008%=      5-min Rain = 0
KVA1 082208Z 26019G25KT 30/M09 A2985 RMK A01 T02971085  RH  008%=      5-min Rain = 0
KVA1 082209Z 26018G25KT 30/M09 A2985 RMK A01 T03001085  RH  008%=      5-min Rain = 0
KVA1 082210Z 27022KT 30/M09 A2985 RMK A01 T03011086  RH  008%=      5-min Rain = 0
KVA1 082211Z 27016G22KT 30/M09 A2985 RMK A01 T03011085  RH  008%=      5-min Rain = 0
KVA1 082212Z 28016G21KT 30/M09 A2985 RMK A01 T03011086  RH  008%=      5-min Rain = 0
KVA1 082213Z 28014G19KT 30/M09 A2985 RMK A01 T03001087  RH  008%=      5-min Rain = 0
KVA1 082214Z 27013KT 30/M09 A2985 RMK A01 T03001087  RH  008%=      5-min Rain = 0
KVA1 082215Z 29014KT 30/M09 A2985 RMK A01 T03001087  RH  007%=      5-min Rain = 0
KVA1 082216Z 27016KT 30/M09 A2985 RMK A01 T02991087  RH  008%=      5-min Rain = 0
KVA1 082217Z 27016G27KT 30/M09 A2985 RMK A01 T02981088  RH  008%=      5-min Rain = 0
KVA1 082218Z 27020G25KT 30/M09 A2985 RMK A01 T02971088  RH  008%=      5-min Rain = 0
KVA1 082219Z 27019G24KT 30/M09 A2985 RMK A01 T02981088  RH  008%=      5-min Rain = 0
KVA1 082220Z 26017G25KT 30/M09 A2985 RMK A01 T02981089  RH  007%=      5-min Rain = 0
KVA1 082221Z 26020G25KT 30/M09 A2985 RMK A01 T02981088  RH  008%=      5-min Rain = 0
KVA1 082222Z 26021KT 30/M09 A2985 RMK A01 T02961088  RH  008%=      5-min Rain = 0
KVA1 082223Z 25016G26KT 29/M09 A2985 RMK A01 T02941089  RH  008%=      5-min Rain = 0
KVA1 082224Z 25019G25KT 29/M09 A2985 RMK A01 T02941089  RH  008%=      5-min Rain = 0
KVA1 082225Z 26018KT 29/M09 A2985 RMK A01 T02931090  RH  008%=      5-min Rain = 0
KVA1 082226Z 27018KT 29/M09 A2985 RMK A01 T02911090  RH  008%=      5-min Rain = 0
KVA1 082227Z 28018KT 29/M09 A2985 RMK A01 T02911090  RH  008%=      5-min Rain = 0
KVA1 082228Z 27016G21KT 29/M09 A2985 RMK A01 T02911088  RH  008%=      5-min Rain = 0
KVA1 082229Z 28011KT 29/M09 A2985 RMK A01 T02911088  RH  008%=      5-min Rain = 0
KVA1 082230Z 28014G19KT 29/M09 A2985 RMK A01 T02921087  RH  008%=      5-min Rain = 0
KVA1 082231Z 28012G23KT 29/M09 A2985 RMK A01 T02941086  RH  008%=      5-min Rain = 0
KVA1 082232Z 28016G21KT 29/M09 A2985 RMK A01 T02941086  RH  008%=      5-min Rain = 0
KVA1 082233Z 29014KT 29/M09 A2985 RMK A01 T02941086  RH  008%=      5-min Rain = 0
KVA1 082234Z 29015KT 30/M09 A2984 RMK A01 T02951086  RH  008%=      5-min Rain = 0
KVA1 082235Z 28013KT 30/M09 A2984 RMK A01 T02951086  RH  008%=      5-min Rain = 0
KVA1 082236Z 28011KT 30/M09 A2984 RMK A01 T02971085  RH  008%=      5-min Rain = 0
KVA1 082237Z 28015KT 30/M09 A2984 RMK A01 T02991085  RH  008%=      5-min Rain = 0
KVA1 082238Z 27014G19KT 30/M09 A2984 RMK A01 T02981086  RH  008%=      5-min Rain = 0
KVA1 082239Z 27019KT 30/M09 A2984 RMK A01 T02971087  RH  008%=      5-min Rain = 0
KVA1 082240Z 26015G20KT 30/M09 A2984 RMK A01 T02951089  RH  008%=      5-min Rain = 0
KVA1 082241Z 25015G20KT 30/M09 A2984 RMK A01 T02951089  RH  008%=      5-min Rain = 0
KVA1 082242Z 26018G23KT 30/M09 A2984 RMK A01 T02951088  RH  008%=      5-min Rain = 0
KVA1 082243Z 26015KT 30/M09 A2985 RMK A01 T02951088  RH  008%=      5-min Rain = 0
KVA1 082244Z 25015G22KT 30/M09 A2984 RMK A01 T02951087  RH  008%=      5-min Rain = 0
KVA1 082245Z 25015KT 30/M09 A2984 RMK A01 T02961086  RH  008%=      5-min Rain = 0
KVA1 082246Z 27012KT 30/M09 A2984 RMK A01 T02961086  RH  008%=      5-min Rain = 0
KVA1 082247Z 27014KT 30/M09 A2984 RMK A01 T02981085  RH  008%=      5-min Rain = 0
KVA1 082248Z 28014KT 30/M08 A2984 RMK A01 T03001083  RH  008%=      5-min Rain = 0
KVA1 082249Z 28015KT 30/M08 A2984 RMK A01 T03011081  RH  008%=      5-min Rain = 0
KVA1 082250Z 27013KT 30/M08 A2984 RMK A01 T03011082  RH  008%=      5-min Rain = 0
KVA1 082251Z 28011G16KT 30/M08 A2984 RMK A01 T03001083  RH  008%=      5-min Rain = 0
KVA1 082252Z 29011G16KT 30/M08 A2984 RMK A01 T03011082  RH  008%=      5-min Rain = 0
KVA1 082253Z 28009KT 30/M08 A2984 RMK A01 T03031081  RH  008%=      5-min Rain = 0
KVA1 082254Z 30016KT 30/M08 A2984 RMK A01 T03041082  RH  008%=      5-min Rain = 0
KVA1 082255Z 29011G17KT 30/M09 A2984 RMK A01 T02991085  RH  008%=      5-min Rain = 0
KVA1 082256Z 29011KT 30/M08 A2984 RMK A01 T02971084  RH  008%=      5-min Rain = 0
KVA1 082257Z 27016KT 30/M08 A2984 RMK A01 T02961083  RH  008%=      5-min Rain = 0
KVA1 082258Z 27013G20KT 29/M09 A2984 RMK A01 T02931085  RH  008%=      5-min Rain = 0
KVA1 082259Z 28011G16KT 29/M08 A2984 RMK A01 T02921084  RH  008%=      5-min Rain = 0
KVA1 082300Z 28013KT 29/M08 A2984 RMK A01 T02921084  RH  008%=      5-min Rain = 0
KVA1 082301Z 27012KT 29/M08 A2984 RMK A01 T02921084  RH  008%=      5-min Rain = 0
KVA1 082302Z 25013G18KT 29/M09 A2984 RMK A01 T02911085  RH  008%=      5-min Rain = 0
KVA1 082303Z 26014KT 29/M09 A2984 RMK A01 T02911085  RH  008%=      5-min Rain = 0
KVA1 082304Z 29013KT 29/M08 A2984 RMK A01 T02911084  RH  008%=      5-min Rain = 0
KVA1 082305Z 28013KT 29/M08 A2984 RMK A01 T02911084  RH  008%=      5-min Rain = 0
KVA1 082306Z 29009G14KT 29/M08 A2984 RMK A01 T02911084  RH  008%=      5-min Rain = 0
KVA1 082307Z 28006KT 29/M09 A2983 RMK A01 T02901085  RH  008%=      5-min Rain = 0
KVA1 082308Z 28011G20KT 29/M09 A2983 RMK A01 T02891085  RH  008%=      5-min Rain = 0
KVA1 082309Z 25017G23KT 29/M09 A2984 RMK A01 T02911085  RH  008%=      5-min Rain = 0
KVA1 082310Z 26015KT 29/M09 A2984 RMK A01 T02931085  RH  008%=      5-min Rain = 0
KVA1 082311Z 27014KT 30/M09 A2984 RMK A01 T02951085  RH  008%=      5-min Rain = 0
KVA1 082312Z 27016KT 30/M09 A2984 RMK A01 T02951087  RH  008%=      5-min Rain = 0
KVA1 082313Z 28010KT 29/M09 A2984 RMK A01 T02931087  RH  008%=      5-min Rain = 0
KVA1 082314Z 28011G16KT 29/M09 A2984 RMK A01 T02931087  RH  008%=      5-min Rain = 0
KVA1 082315Z 27015G20KT 29/M09 A2984 RMK A01 T02931087  RH  008%=      5-min Rain = 0
KVA1 082316Z 28014KT 29/M09 A2984 RMK A01 T02941088  RH  008%=      5-min Rain = 0
KVA1 082317Z 29015KT 29/M09 A2984 RMK A01 T02931088  RH  008%=      5-min Rain = 0
KVA1 082318Z 27014KT 29/M09 A2983 RMK A01 T02911090  RH  008%=      5-min Rain = 0
KVA1 082319Z 27013KT 29/M09 A2984 RMK A01 T02911089  RH  008%=      5-min Rain = 0
KVA1 082320Z 27018KT 29/M09 A2984 RMK A01 T02911090  RH  008%=      5-min Rain = 0
KVA1 082321Z 27013KT 29/M09 A2984 RMK A01 T02891091  RH  008%=      5-min Rain = 0
KVA1 082322Z 27016KT 29/M09 A2983 RMK A01 T02891090  RH  008%=      5-min Rain = 0
KVA1 082323Z 27017KT 29/M09 A2983 RMK A01 T02891091  RH  008%=      5-min Rain = 0
KVA1 082324Z 27013G18KT 29/M09 A2983 RMK A01 T02881093  RH  008%=      5-min Rain = 0
KVA1 082325Z 26012G18KT 29/M09 A2983 RMK A01 T02881093  RH  008%=      5-min Rain = 0
KVA1 082326Z 26013KT 29/M09 A2983 RMK A01 T02891093  RH  008%=      5-min Rain = 0
KVA1 082327Z 27013G18KT 29/M09 A2983 RMK A01 T02911094  RH  007%=      5-min Rain = 0
KVA1 082328Z 28016KT 29/M10 A2983 RMK A01 T02911095  RH  007%=      5-min Rain = 0
KVA1 082329Z 27015KT 29/M10 A2983 RMK A01 T02911096  RH  007%=      5-min Rain = 0
KVA1 082330Z 27017KT 29/M10 A2983 RMK A01 T02901096  RH  007%=      5-min Rain = 0
KVA1 082331Z 26014KT 29/M10 A2983 RMK A01 T02891095  RH  007%=      5-min Rain = 0
KVA1 082332Z 26017G23KT 29/M10 A2983 RMK A01 T02891096  RH  007%=      5-min Rain = 0
KVA1 082333Z 27016KT 29/M10 A2983 RMK A01 T02891096  RH  007%=      5-min Rain = 0
KVA1 082334Z 27016KT 29/M10 A2983 RMK A01 T02891097  RH  007%=      5-min Rain = 0
KVA1 082335Z 26014KT 29/M10 A2983 RMK A01 T02881097  RH  007%=      5-min Rain = 0
KVA1 082336Z 27013KT 29/M10 A2983 RMK A01 T02871097  RH  007%=      5-min Rain = 0
KVA1 082337Z 25016KT 29/M10 A2983 RMK A01 T02881097  RH  007%=      5-min Rain = 0
KVA1 082338Z 25015G20KT 29/M10 A2983 RMK A01 T02881097  RH  007%=      5-min Rain = 0
KVA1 082339Z 26015KT 29/M10 A2983 RMK A01 T02901096  RH  007%=      5-min Rain = 0
KVA1 082340Z 27014KT 29/M10 A2983 RMK A01 T02911096  RH  007%=      5-min Rain = 0
KVA1 082341Z 27011KT 29/M10 A2983 RMK A01 T02911096  RH  007%=      5-min Rain = 0
KVA1 082342Z 25012KT 29/M10 A2983 RMK A01 T02911096  RH  007%=      5-min Rain = 0
KVA1 082343Z 26013G19KT 29/M10 A2983 RMK A01 T02931095  RH  007%=      5-min Rain = 0
KVA1 082344Z 26013KT 29/M10 A2983 RMK A01 T02921095  RH  007%=      5-min Rain = 0
KVA1 082345Z 25014KT 29/M10 A2983 RMK A01 T02911096  RH  007%=      5-min Rain = 0
KVA1 082346Z 26013G18KT 29/M10 A2983 RMK A01 T02921096  RH  007%=      5-min Rain = 0
KVA1 082347Z 27014KT 29/M10 A2983 RMK A01 T02921097  RH  007%=      5-min Rain = 0
KVA1 082348Z 28011KT 29/M10 A2983 RMK A01 T02911097  RH  007%=      5-min Rain = 0
KVA1 082349Z 28012G17KT 29/M10 A2983 RMK A01 T02911097  RH  007%=      5-min Rain = 0
KVA1 082350Z 27011KT 29/M10 A2983 RMK A01 T02901097  RH  007%=      5-min Rain = 0
KVA1 082351Z 28015KT 29/M10 A2983 RMK A01 T02911097  RH  007%=      5-min Rain = 0
KVA1 082352Z 28014KT 29/M10 A2983 RMK A01 T02891097  RH  007%=      5-min Rain = 0
KVA1 082353Z 27013KT 29/M10 A2983 RMK A01 T02881097  RH  007%=      5-min Rain = 0
KVA1 082354Z 27013KT 29/M10 A2983 RMK A01 T02881097  RH  007%=      5-min Rain = 0
KVA1 082355Z 27011KT 29/M10 A2983 RMK A01 T02871097  RH  007%=      5-min Rain = 0
KVA1 082356Z 28011KT 29/M10 A2982 RMK A01 T02871097  RH  007%=      5-min Rain = 0
KVA1 082357Z 27012KT 29/M10 A2982 RMK A01 T02861097  RH  007%=      5-min Rain = 0
KVA1 082358Z 27011KT 29/M10 A2982 RMK A01 T02851098  RH  007%=      5-min Rain = 0
KVA1 082359Z 27012KT 29/M10 A2982 RMK A01 T02851097  RH  008%=      5-min Rain = 0
KVA1 090000Z 26012G17KT 28/M10 A2982 RMK A01 T02841097  RH  008%=      5-min Rain = 0
KVA1 090001Z 27013KT 28/M10 A2982 RMK A01 T02841098  RH  008%=      5-min Rain = 0
KVA1 090002Z 26013KT 29/M10 A2982 RMK A01 T02851097  RH  008%=      5-min Rain = 0
KVA1 090003Z 24013KT 29/M10 A2982 RMK A01 T02851096  RH  008%=      5-min Rain = 0
KVA1 090004Z 25014KT 29/M10 A2982 RMK A01 T02851095  RH  008%=      5-min Rain = 0
KVA1 090005Z 25009KT 29/M10 A2982 RMK A01 T02851096  RH  008%=      5-min Rain = 0
KVA1 090006Z 24010KT 29/M10 A2982 RMK A01 T02851096  RH  008%=      5-min Rain = 0
KVA1 090007Z 24012KT 29/M09 A2981 RMK A01 T02861094  RH  008%=      5-min Rain = 0
KVA1 090008Z 25013G18KT 29/M09 A2981 RMK A01 T02871094  RH  008%=      5-min Rain = 0
KVA1 090009Z 24015KT 29/M09 A2981 RMK A01 T02881093  RH  008%=      5-min Rain = 0
KVA1 090010Z 26016KT 29/M09 A2982 RMK A01 T02881094  RH  008%=      5-min Rain = 0
KVA1 090011Z 26013G18KT 29/M10 A2981 RMK A01 T02881095  RH  007%=      5-min Rain = 0
KVA1 090012Z 25009KT 29/M10 A2981 RMK A01 T02891095  RH  008%=      5-min Rain = 0
KVA1 090013Z 26010KT 29/M09 A2981 RMK A01 T02891093  RH  008%=      5-min Rain = 0
KVA1 090014Z 26010KT 29/M09 A2981 RMK A01 T02901094  RH  007%=      5-min Rain = 0
KVA1 090015Z 26011KT 29/M10 A2981 RMK A01 T02901095  RH  007%=      5-min Rain = 0
KVA1 090016Z 26009KT 29/M09 A2981 RMK A01 T02891094  RH  008%=      5-min Rain = 0
KVA1 090017Z 25009KT 29/M09 A2981 RMK A01 T02901094  RH  007%=      5-min Rain = 0
KVA1 090018Z 25010KT 29/M09 A2981 RMK A01 T02901093  RH  008%=      5-min Rain = 0
KVA1 090019Z 25009KT 29/M09 A2981 RMK A01 T02891094  RH  008%=      5-min Rain = 0
KVA1 090020Z 25008KT 29/M10 A2981 RMK A01 T02891095  RH  008%=      5-min Rain = 0
KVA1 090021Z 25011KT 29/M09 A2981 RMK A01 T02901094  RH  008%=      5-min Rain = 0
KVA1 090022Z 25010KT 29/M09 A2981 RMK A01 T02901094  RH  008%=      5-min Rain = 0
KVA1 090023Z 25009KT 29/M10 A2981 RMK A01 T02891095  RH  007%=      5-min Rain = 0
KVA1 090024Z 25006KT 29/M09 A2981 RMK A01 T02891094  RH  008%=      5-min Rain = 0
KVA1 090025Z 25009KT 29/M09 A2981 RMK A01 T02891094  RH  008%=      5-min Rain = 0
KVA1 090026Z 25009KT 29/M09 A2981 RMK A01 T02891094  RH  008%=      5-min Rain = 0
KVA1 090027Z 25008KT 29/M09 A2981 RMK A01 T02891094  RH  008%=      5-min Rain = 0
KVA1 090028Z 25010KT 29/M09 A2981 RMK A01 T02891093  RH  008%=      5-min Rain = 0
KVA1 090029Z 26011KT 29/M09 A2981 RMK A01 T02881094  RH  008%=      5-min Rain = 0
KVA1 090030Z 25009KT 29/M09 A2981 RMK A01 T02871094  RH  008%=      5-min Rain = 0
KVA1 090031Z 25007KT 29/M09 A2981 RMK A01 T02871094  RH  008%=      5-min Rain = 0
KVA1 090032Z 25006KT 29/M09 A2981 RMK A01 T02871093  RH  008%=      5-min Rain = 0
KVA1 090033Z 25008KT 29/M09 A2981 RMK A01 T02871093  RH  008%=      5-min Rain = 0
KVA1 090034Z 25007KT 29/M09 A2981 RMK A01 T02861093  RH  008%=      5-min Rain = 0
KVA1 090035Z 25007KT 29/M09 A2981 RMK A01 T02861093  RH  008%=      5-min Rain = 0
KVA1 090036Z 26009KT 29/M09 A2981 RMK A01 T02871091  RH  008%=      5-min Rain = 0
KVA1 090037Z 26008KT 29/M09 A298 RMK A01 T02861090  RH  008%=      5-min Rain = 0
KVA1 090038Z 25007KT 29/M09 A298 RMK A01 T02861091  RH  008%=      5-min Rain = 0
KVA1 090039Z 25008KT 29/M09 A298 RMK A01 T02861091  RH  008%=      5-min Rain = 0
KVA1 090040Z 26008KT 29/M09 A298 RMK A01 T02861090  RH  008%=      5-min Rain = 0
KVA1 090041Z 26008KT 29/M09 A298 RMK A01 T02861091  RH  008%=      5-min Rain = 0
KVA1 090042Z 26006KT 29/M09 A298 RMK A01 T02871090  RH  008%=      5-min Rain = 0
KVA1 090043Z 26007KT 29/M09 A298 RMK A01 T02871090  RH  008%=      5-min Rain = 0
KVA1 090044Z 27006KT 29/M09 A298 RMK A01 T02871090  RH  008%=      5-min Rain = 0
KVA1 090045Z 25005KT 29/M09 A298 RMK A01 T02881089  RH  008%=      5-min Rain = 0
KVA1 090046Z 26006KT 29/M09 A298 RMK A01 T02881090  RH  008%=      5-min Rain = 0
KVA1 090047Z 26007KT 29/M09 A298 RMK A01 T02891089  RH  008%=      5-min Rain = 0
KVA1 090048Z 27008KT 29/M09 A298 RMK A01 T02881090  RH  008%=      5-min Rain = 0
KVA1 090049Z 26009G15KT 29/M09 A298 RMK A01 T02881089  RH  008%=      5-min Rain = 0
KVA1 090050Z 26009G14KT 29/M09 A298 RMK A01 T02891090  RH  008%=      5-min Rain = 0
KVA1 090051Z 25008KT 29/M09 A298 RMK A01 T02881090  RH  008%=      5-min Rain = 0
KVA1 090052Z 25008KT 29/M09 A298 RMK A01 T02881090  RH  008%=      5-min Rain = 0
KVA1 090053Z 25007KT 29/M09 A298 RMK A01 T02881091  RH  008%=      5-min Rain = 0
KVA1 090054Z 25006KT 29/M09 A298 RMK A01 T02881091  RH  008%=      5-min Rain = 0
KVA1 090055Z 25006KT 29/M09 A298 RMK A01 T02871091  RH  008%=      5-min Rain = 0
KVA1 090056Z 25007KT 29/M09 A298 RMK A01 T02871091  RH  008%=      5-min Rain = 0
KVA1 090057Z 25006KT 29/M09 A298 RMK A01 T02871090  RH  008%=      5-min Rain = 0
KVA1 090058Z 26006KT 29/M09 A298 RMK A01 T02871090  RH  008%=      5-min Rain = 0
KVA1 090059Z 26004KT 29/M09 A2979 RMK A01 T02861090  RH  008%=      5-min Rain = 0
KVA1 090100Z 26005KT 29/M09 A2979 RMK A01 T02861090  RH  008%=      5-min Rain = 0
KVA1 090101Z 25005KT 29/M09 A2979 RMK A01 T02851090  RH  008%=      5-min Rain = 0
KVA1 090102Z 25008KT 29/M09 A2979 RMK A01 T02851089  RH  008%=      5-min Rain = 0
KVA1 090103Z 26007KT 28/M09 A2979 RMK A01 T02841090  RH  008%=      5-min Rain = 0
KVA1 090104Z 26006KT 28/M09 A2979 RMK A01 T02841089  RH  008%=      5-min Rain = 0
KVA1 090105Z 25006KT 28/M09 A2979 RMK A01 T02831090  RH  008%=      5-min Rain = 0
KVA1 090106Z 26007KT 28/M09 A2979 RMK A01 T02821090  RH  008%=      5-min Rain = 0
KVA1 090107Z 25006KT 28/M09 A2979 RMK A01 T02811090  RH  008%=      5-min Rain = 0
KVA1 090108Z 25008KT 28/M09 A2979 RMK A01 T02811091  RH  008%=      5-min Rain = 0
KVA1 090109Z 25007KT 28/M09 A2979 RMK A01 T02801090  RH  008%=      5-min Rain = 0
KVA1 090110Z 25006KT 28/M09 A2979 RMK A01 T02791090  RH  008%=      5-min Rain = 0
KVA1 090111Z 25005KT 28/M09 A2979 RMK A01 T02791091  RH  008%=      5-min Rain = 0
KVA1 090112Z 25006KT 28/M09 A2979 RMK A01 T02781089  RH  008%=      5-min Rain = 0
KVA1 090113Z 25006KT 28/M09 A2979 RMK A01 T02771089  RH  008%=      5-min Rain = 0
KVA1 090114Z 25006KT 28/M09 A2979 RMK A01 T02761090  RH  008%=      5-min Rain = 0
KVA1 090115Z 24006KT 28/M09 A2979 RMK A01 T02761089  RH  008%=      5-min Rain = 0
KVA1 090116Z 24006KT 28/M09 A2979 RMK A01 T02751090  RH  008%=      5-min Rain = 0
KVA1 090117Z 25005KT 27/M09 A2979 RMK A01 T02741090  RH  008%=      5-min Rain = 0
KVA1 090118Z 24005KT 27/M09 A2979 RMK A01 T02741091  RH  008%=      5-min Rain = 0
KVA1 090119Z 25005KT 27/M09 A2979 RMK A01 T02731090  RH  009%=      5-min Rain = 0
KVA1 090120Z 25005KT 27/M09 A2979 RMK A01 T02721090  RH  009%=      5-min Rain = 0
KVA1 090121Z 24005KT 27/M09 A2979 RMK A01 T02711090  RH  009%=      5-min Rain = 0
KVA1 090122Z 24005KT 27/M09 A298 RMK A01 T02701091  RH  009%=      5-min Rain = 0
KVA1 090123Z 24004KT 27/M09 A2979 RMK A01 T02691091  RH  009%=      5-min Rain = 0
KVA1 090124Z 24004KT 27/M09 A2979 RMK A01 T02681091  RH  009%=      5-min Rain = 0
KVA1 090125Z 24005KT 27/M09 A2979 RMK A01 T02661092  RH  009%=      5-min Rain = 0
KVA1 090126Z 24004KT 27/M09 A2979 RMK A01 T02651091  RH  009%=      5-min Rain = 0
KVA1 090127Z 24005KT 27/M09 A2979 RMK A01 T02651090  RH  009%=      5-min Rain = 0
KVA1 090128Z 24004KT 26/M09 A2979 RMK A01 T02641091  RH  009%=      5-min Rain = 0
KVA1 090129Z 24004KT 26/M09 A2979 RMK A01 T02631092  RH  009%=      5-min Rain = 0
KVA1 090130Z 24004KT 26/M09 A2979 RMK A01 T02611092  RH  009%=      5-min Rain = 0
KVA1 090131Z 25004KT 26/M09 A2979 RMK A01 T02601092  RH  009%=      5-min Rain = 0
KVA1 090132Z 24004KT 26/M09 A2979 RMK A01 T02591092  RH  009%=      5-min Rain = 0
KVA1 090133Z 25004KT 26/M09 A2979 RMK A01 T02581091  RH  009%=      5-min Rain = 0
KVA1 090134Z 25004KT 26/M09 A2979 RMK A01 T02551093  RH  009%=      5-min Rain = 0
KVA1 090135Z 25004KT 25/M09 A2979 RMK A01 T02541093  RH  009%=      5-min Rain = 0
KVA1 090136Z 25004KT 25/M09 A2979 RMK A01 T02531092  RH  009%=      5-min Rain = 0
KVA1 090137Z 25003KT 25/M09 A2979 RMK A01 T02511093  RH  010%=      5-min Rain = 0
KVA1 090138Z 25003KT 25/M09 A2979 RMK A01 T02501093  RH  010%=      5-min Rain = 0
KVA1 090139Z 25004KT 25/M09 A2979 RMK A01 T02491092  RH  010%=      5-min Rain = 0
KVA1 090140Z 25004KT 25/M09 A2979 RMK A01 T02481093  RH  010%=      5-min Rain = 0
KVA1 090141Z 25004KT 25/M09 A2979 RMK A01 T02471093  RH  010%=      5-min Rain = 0
KVA1 090142Z 26003KT 25/M09 A2979 RMK A01 T02461093  RH  010%=      5-min Rain = 0
KVA1 090143Z 28004KT 24/M09 A2979 RMK A01 T02431094  RH  010%=      5-min Rain = 0
KVA1 090144Z 28004KT 24/M09 A2979 RMK A01 T02411094  RH  010%=      5-min Rain = 0
KVA1 090145Z 27004KT 24/M09 A2979 RMK A01 T02401093  RH  010%=      5-min Rain = 0
KVA1 090146Z 26004KT 24/M09 A2979 RMK A01 T02381094  RH  010%=      5-min Rain = 0
KVA1 090147Z 27004KT 24/M10 A2979 RMK A01 T02381095  RH  010%=      5-min Rain = 0
KVA1 090148Z 26005KT 24/M10 A2979 RMK A01 T02371095  RH  010%=      5-min Rain = 0
KVA1 090149Z 26005KT 24/M10 A2979 RMK A01 T02361095  RH  010%=      5-min Rain = 0
KVA1 090150Z 26004KT 24/M10 A2979 RMK A01 T02351097  RH  010%=      5-min Rain = 0
KVA1 090151Z 25005KT 23/M10 A2979 RMK A01 T02341097  RH  010%=      5-min Rain = 0
KVA1 090152Z 25006KT 23/M10 A2979 RMK A01 T02321097  RH  010%=      5-min Rain = 0
KVA1 090153Z 24006KT 23/M10 A2979 RMK A01 T02321096  RH  010%=      5-min Rain = 0
KVA1 090154Z 24006KT 23/M10 A2979 RMK A01 T02321095  RH  010%=      5-min Rain = 0
KVA1 090155Z 24006KT 23/M09 A2979 RMK A01 T02331094  RH  011%=      5-min Rain = 0
KVA1 090156Z 24006KT 24/M09 A2979 RMK A01 T02351093  RH  010%=      5-min Rain = 0
KVA1 090157Z 24007KT 24/M09 A2979 RMK A01 T02361093  RH  010%=      5-min Rain = 0
KVA1 090158Z 24007KT 24/M09 A2979 RMK A01 T02351093  RH  010%=      5-min Rain = 0
KVA1 090159Z 24007KT 24/M09 A2979 RMK A01 T02351094  RH  010%=      5-min Rain = 0
KVA1 090200Z 24007KT 24/M09 A2979 RMK A01 T02351094  RH  010%=      5-min Rain = 0
KVA1 090201Z 24006KT 24/M09 A2979 RMK A01 T02351094  RH  010%=      5-min Rain = 0
KVA1 090202Z 24006KT 24/M09 A2979 RMK A01 T02351094  RH  010%=      5-min Rain = 0
KVA1 090203Z 29004KT 23/M10 A298 RMK A01 T02331096  RH  010%=      5-min Rain = 0
KVA1 090204Z 26005KT 23/M10 A298 RMK A01 T02291098  RH  010%=      5-min Rain = 0
KVA1 090205Z 28005KT 23/M10 A298 RMK A01 T02281097  RH  011%=      5-min Rain = 0
KVA1 090206Z 28005KT 23/M10 A298 RMK A01 T02271097  RH  011%=      5-min Rain = 0
KVA1 090207Z 27006KT 23/M10 A298 RMK A01 T02271096  RH  011%=      5-min Rain = 0
KVA1 090208Z 27005KT 23/M10 A298 RMK A01 T02271096  RH  011%=      5-min Rain = 0
KVA1 090209Z 27005KT 23/M10 A298 RMK A01 T02261096  RH  011%=      5-min Rain = 0
KVA1 090210Z 27005KT 23/M10 A298 RMK A01 T02261097  RH  011%=      5-min Rain = 0
KVA1 090211Z 26005KT 23/M10 A298 RMK A01 T02251097  RH  011%=      5-min Rain = 0
KVA1 090212Z 26005KT 22/M10 A298 RMK A01 T02241097  RH  011%=      5-min Rain = 0
KVA1 090213Z 26006KT 22/M10 A298 RMK A01 T02241097  RH  011%=      5-min Rain = 0
KVA1 090214Z 26006KT 22/M10 A298 RMK A01 T02241097  RH  011%=      5-min Rain = 0
KVA1 090215Z 26006KT 22/M10 A298 RMK A01 T02231096  RH  011%=      5-min Rain = 0
KVA1 090216Z 25006KT 22/M10 A298 RMK A01 T02221097  RH  011%=      5-min Rain = 0
KVA1 090217Z 25006KT 22/M10 A298 RMK A01 T02211097  RH  011%=      5-min Rain = 0
KVA1 090218Z 25006KT 22/M10 A298 RMK A01 T02221096  RH  011%=      5-min Rain = 0
KVA1 090219Z 25007KT 22/M10 A298 RMK A01 T02221095  RH  011%=      5-min Rain = 0
KVA1 090220Z 25007KT 22/M10 A298 RMK A01 T02211096  RH  011%=      5-min Rain = 0
KVA1 090221Z 24006KT 22/M10 A298 RMK A01 T02201097  RH  011%=      5-min Rain = 0
KVA1 090222Z 24006KT 22/M10 A298 RMK A01 T02211095  RH  011%=      5-min Rain = 0
KVA1 090223Z 24007KT 22/M10 A298 RMK A01 T02221095  RH  011%=      5-min Rain = 0
KVA1 090224Z 23006KT 22/M09 A298 RMK A01 T02231094  RH  011%=      5-min Rain = 0
KVA1 090225Z 23006KT 22/M09 A298 RMK A01 T02231094  RH  011%=      5-min Rain = 0
KVA1 090226Z 24006KT 22/M09 A298 RMK A01 T02241093  RH  011%=      5-min Rain = 0
KVA1 090227Z 24007KT 22/M10 A298 RMK A01 T02231095  RH  011%=      5-min Rain = 0
KVA1 090228Z 25007KT 22/M09 A298 RMK A01 T02231094  RH  011%=      5-min Rain = 0
KVA1 090229Z 25007KT 22/M09 A298 RMK A01 T02221094  RH  011%=      5-min Rain = 0
KVA1 090230Z 25007KT 22/M09 A298 RMK A01 T02221094  RH  011%=      5-min Rain = 0
KVA1 090231Z 24007KT 22/M10 A298 RMK A01 T02211095  RH  011%=      5-min Rain = 0
KVA1 090232Z 24007KT 22/M09 A298 RMK A01 T02191094  RH  011%=      5-min Rain = 0
KVA1 090233Z 23006KT 22/M09 A298 RMK A01 T02191093  RH  011%=      5-min Rain = 0
KVA1 090234Z 25005KT 22/M09 A298 RMK A01 T02191094  RH  011%=      5-min Rain = 0
KVA1 090235Z 24006KT 22/M09 A298 RMK A01 T02181094  RH  011%=      5-min Rain = 0
KVA1 090236Z 25006KT 22/M09 A298 RMK A01 T02181094  RH  011%=      5-min Rain = 0
KVA1 090237Z 24006KT 22/M10 A298 RMK A01 T02171095  RH  011%=      5-min Rain = 0
KVA1 090238Z 24006KT 22/M10 A298 RMK A01 T02161095  RH  012%=      5-min Rain = 0
KVA1 090239Z 25006KT 22/M09 A298 RMK A01 T02151094  RH  012%=      5-min Rain = 0
KVA1 090240Z 25006KT 22/M09 A298 RMK A01 T02151094  RH  012%=      5-min Rain = 0
KVA1 090241Z 25006KT 22/M09 A298 RMK A01 T02151094  RH  012%=      5-min Rain = 0
KVA1 090242Z 26006KT 22/M09 A298 RMK A01 T02151094  RH  012%=      5-min Rain = 0
KVA1 090243Z 26006KT 21/M09 A298 RMK A01 T02141094  RH  012%=      5-min Rain = 0
KVA1 090244Z 26006KT 21/M09 A298 RMK A01 T02121094  RH  012%=      5-min Rain = 0
KVA1 090245Z 27005KT 21/M10 A2981 RMK A01 T02101095  RH  012%=      5-min Rain = 0
KVA1 090246Z 27005KT 21/M10 A2981 RMK A01 T02091095  RH  012%=      5-min Rain = 0
KVA1 090247Z 27006KT 21/M10 A2981 RMK A01 T02081095  RH  012%=      5-min Rain = 0
KVA1 090248Z 27007KT 21/M10 A2981 RMK A01 T02081096  RH  012%=      5-min Rain = 0
KVA1 090249Z 26008KT 21/M10 A2981 RMK A01 T02081096  RH  012%=      5-min Rain = 0
KVA1 090250Z 27007KT 21/M10 A2981 RMK A01 T02081095  RH  012%=      5-min Rain = 0
KVA1 090251Z 26007KT 21/M10 A2981 RMK A01 T02091096  RH  012%=      5-min Rain = 0
KVA1 090252Z 26007KT 21/M10 A2981 RMK A01 T02091096  RH  012%=      5-min Rain = 0
KVA1 090253Z 26006KT 21/M10 A2981 RMK A01 T02101095  RH  012%=      5-min Rain = 0
KVA1 090254Z 27006KT 21/M10 A2981 RMK A01 T02101095  RH  012%=      5-min Rain = 0
KVA1 090255Z 27006KT 21/M10 A2981 RMK A01 T02111095  RH  012%=      5-min Rain = 0
KVA1 090256Z 27006KT 21/M10 A2981 RMK A01 T02101095  RH  012%=      5-min Rain = 0
KVA1 090257Z 27007KT 21/M10 A2981 RMK A01 T02101095  RH  012%=      5-min Rain = 0
KVA1 090258Z 27007KT 21/M10 A2981 RMK A01 T02101095  RH  012%=      5-min Rain = 0
KVA1 090259Z 27007KT 21/M10 A2981 RMK A01 T02101095  RH  012%=      5-min Rain = 0
KVA1 090300Z 27007KT 21/M09 A2981 RMK A01 T02111094  RH  012%=      5-min Rain = 0
KVA1 090301Z 26006KT 21/M10 A2981 RMK A01 T02111095  RH  012%=      5-min Rain = 0
KVA1 090302Z 26006KT 21/M10 A2981 RMK A01 T02101096  RH  012%=      5-min Rain = 0
KVA1 090303Z 26007KT 21/M10 A2981 RMK A01 T02101095  RH  012%=      5-min Rain = 0
KVA1 090304Z 26007KT 21/M09 A2981 RMK A01 T02111094  RH  012%=      5-min Rain = 0
KVA1 090305Z 26007KT 21/M09 A2981 RMK A01 T02131093  RH  012%=      5-min Rain = 0
KVA1 090306Z 27007KT 22/M09 A2981 RMK A01 T02151094  RH  012%=      5-min Rain = 0
KVA1 090307Z 27006KT 22/M10 A2981 RMK A01 T02151095  RH  012%=      5-min Rain = 0
KVA1 090308Z 27006KT 22/M10 A2981 RMK A01 T02161095  RH  012%=      5-min Rain = 0
KVA1 090309Z 27006KT 22/M10 A2981 RMK A01 T02171095  RH  012%=      5-min Rain = 0
KVA1 090310Z 27006KT 22/M10 A2981 RMK A01 T02171095  RH  011%=      5-min Rain = 0
KVA1 090311Z 27006KT 22/M10 A2981 RMK A01 T02171095  RH  011%=      5-min Rain = 0
KVA1 090312Z 27006KT 22/M10 A2981 RMK A01 T02171095  RH  011%=      5-min Rain = 0
KVA1 090313Z 27006KT 22/M10 A2981 RMK A01 T02171095  RH  011%=      5-min Rain = 0
KVA1 090314Z 27006KT 22/M10 A2981 RMK A01 T02161095  RH  012%=      5-min Rain = 0
KVA1 090315Z 27006KT 22/M10 A2981 RMK A01 T02161096  RH  011%=      5-min Rain = 0
KVA1 090316Z 28006KT 22/M10 A2981 RMK A01 T02171096  RH  011%=      5-min Rain = 0
KVA1 090317Z 27006KT 22/M10 A2981 RMK A01 T02171095  RH  012%=      5-min Rain = 0
KVA1 090318Z 26005KT 22/M10 A2981 RMK A01 T02161096  RH  011%=      5-min Rain = 0
KVA1 090319Z 27005KT 22/M10 A2981 RMK A01 T02161096  RH  011%=      5-min Rain = 0
KVA1 090320Z 28006KT 22/M10 A2981 RMK A01 T02161095  RH  012%=      5-min Rain = 0
KVA1 090321Z 28006KT 22/M10 A2981 RMK A01 T02151096  RH  012%=      5-min Rain = 0
KVA1 090322Z 28006KT 22/M10 A2981 RMK A01 T02151096  RH  011%=      5-min Rain = 0
KVA1 090323Z 27005KT 22/M10 A2981 RMK A01 T02151097  RH  011%=      5-min Rain = 0
KVA1 090324Z 27005KT 21/M10 A2981 RMK A01 T02131097  RH  012%=      5-min Rain = 0
KVA1 090325Z 25005KT 21/M10 A2981 RMK A01 T02121097  RH  012%=      5-min Rain = 0
KVA1 090326Z 25005KT 21/M10 A2981 RMK A01 T02121097  RH  012%=      5-min Rain = 0
KVA1 090327Z 25005KT 21/M10 A2981 RMK A01 T02121097  RH  012%=      5-min Rain = 0
KVA1 090328Z 24005KT 21/M10 A2981 RMK A01 T02121097  RH  012%=      5-min Rain = 0
KVA1 090329Z 24007KT 21/M10 A2981 RMK A01 T02121097  RH  012%=      5-min Rain = 0
KVA1 090330Z 25007KT 22/M10 A2981 RMK A01 T02151096  RH  012%=      5-min Rain = 0
KVA1 090331Z 25008KT 22/M10 A2981 RMK A01 T02171096  RH  011%=      5-min Rain = 0
KVA1 090332Z 25008KT 22/M10 A2981 RMK A01 T02191096  RH  011%=      5-min Rain = 0
KVA1 090333Z 26008KT 22/M10 A2981 RMK A01 T02221096  RH  011%=      5-min Rain = 0
KVA1 090334Z 27009KT 23/M10 A2981 RMK A01 T02251095  RH  011%=      5-min Rain = 0
KVA1 090335Z 27008KT 23/M10 A2981 RMK A01 T02281096  RH  011%=      5-min Rain = 0
KVA1 090336Z 27007KT 23/M10 A2981 RMK A01 T02311096  RH  010%=      5-min Rain = 0
KVA1 090337Z 27007KT 23/M10 A2981 RMK A01 T02311097  RH  010%=      5-min Rain = 0
KVA1 090338Z 26007KT 23/M10 A2981 RMK A01 T02321098  RH  010%=      5-min Rain = 0
KVA1 090339Z 26007KT 23/M10 A2981 RMK A01 T02321097  RH  010%=      5-min Rain = 0
KVA1 090340Z 27007KT 23/M10 A2981 RMK A01 T02311098  RH  010%=      5-min Rain = 0
KVA1 090341Z 28008KT 23/M10 A2981 RMK A01 T02311098  RH  010%=      5-min Rain = 0
KVA1 090342Z 28007KT 23/M10 A2981 RMK A01 T02311098  RH  010%=      5-min Rain = 0
KVA1 090343Z 27007KT 23/M10 A298 RMK A01 T02301099  RH  010%=      5-min Rain = 0
KVA1 090344Z 27007KT 23/M10 A298 RMK A01 T02291100  RH  010%=      5-min Rain = 0
KVA1 090345Z 27007KT 23/M10 A298 RMK A01 T02281099  RH  010%=      5-min Rain = 0
KVA1 090346Z 27007KT 23/M10 A298 RMK A01 T02281099  RH  010%=      5-min Rain = 0
KVA1 090347Z 27006KT 23/M10 A298 RMK A01 T02271100  RH  010%=      5-min Rain = 0
KVA1 090348Z 27006KT 23/M10 A298 RMK A01 T02261100  RH  010%=      5-min Rain = 0
KVA1 090349Z 26006KT 23/M10 A2981 RMK A01 T02251100  RH  010%=      5-min Rain = 0
KVA1 090350Z 26007KT 23/M10 A2981 RMK A01 T02251101  RH  010%=      5-min Rain = 0
KVA1 090351Z 25007KT 22/M10 A2981 RMK A01 T02241101  RH  011%=      5-min Rain = 0
KVA1 090352Z 25007KT 22/M10 A2981 RMK A01 T02231101  RH  011%=      5-min Rain = 0
KVA1 090353Z 25007KT 22/M10 A2981 RMK A01 T02221101  RH  011%=      5-min Rain = 0
KVA1 090354Z 25007KT 22/M10 A2981 RMK A01 T02211101  RH  011%=      5-min Rain = 0
KVA1 090355Z 24007KT 22/M10 A2981 RMK A01 T02191102  RH  011%=      5-min Rain = 0
KVA1 090356Z 24007KT 22/M10 A2981 RMK A01 T02171102  RH  011%=      5-min Rain = 0
KVA1 090357Z 24007KT 22/M10 A2981 RMK A01 T02161102  RH  011%=      5-min Rain = 0
KVA1 090358Z 24008KT 22/M10 A2981 RMK A01 T02151101  RH  011%=      5-min Rain = 0
KVA1 090359Z 24008KT 22/M10 A2981 RMK A01 T02151101  RH  011%=      5-min Rain = 0
KVA1 090400Z 23007KT 22/M10 A2981 RMK A01 T02161101  RH  011%=      5-min Rain = 0
KVA1 090401Z 23008KT 22/M10 A2981 RMK A01 T02171101  RH  011%=      5-min Rain = 0
KVA1 090402Z 23008KT 22/M10 A2981 RMK A01 T02191100  RH  011%=      5-min Rain = 0
KVA1 090403Z 23010KT 22/M10 A298 RMK A01 T02211099  RH  011%=      5-min Rain = 0
KVA1 090404Z 24010KT 22/M10 A298 RMK A01 T02241099  RH  011%=      5-min Rain = 0
KVA1 090405Z 24010KT 23/M10 A298 RMK A01 T02271099  RH  010%=      5-min Rain = 0
KVA1 090406Z 25011KT 23/M10 A298 RMK A01 T02291100  RH  010%=      5-min Rain = 0
KVA1 090407Z 25011KT 23/M10 A298 RMK A01 T02321099  RH  010%=      5-min Rain = 0
KVA1 090408Z 24011KT 24/M10 A298 RMK A01 T02351099  RH  010%=      5-min Rain = 0
KVA1 090409Z 24010KT 24/M10 A298 RMK A01 T02351099  RH  010%=      5-min Rain = 0
KVA1 090410Z 24009KT 24/M10 A298 RMK A01 T02351100  RH  010%=      5-min Rain = 0
KVA1 090411Z 24009KT 23/M10 A298 RMK A01 T02341101  RH  010%=      5-min Rain = 0
KVA1 090412Z 24008KT 23/M10 A298 RMK A01 T02331101  RH  010%=      5-min Rain = 0
KVA1 090413Z 24009KT 23/M10 A298 RMK A01 T02311102  RH  010%=      5-min Rain = 0
KVA1 090414Z 24009KT 23/M10 A298 RMK A01 T02301102  RH  010%=      5-min Rain = 0
KVA1 090415Z 25009KT 23/M10 A298 RMK A01 T02301102  RH  010%=      5-min Rain = 0
KVA1 090416Z 25009KT 23/M10 A298 RMK A01 T02301102  RH  010%=      5-min Rain = 0
KVA1 090417Z 25009KT 23/M10 A298 RMK A01 T02301102  RH  010%=      5-min Rain = 0
KVA1 090418Z 25008KT 23/M10 A298 RMK A01 T02291102  RH  010%=      5-min Rain = 0
KVA1 090419Z 25009KT 23/M10 A298 RMK A01 T02291103  RH  010%=      5-min Rain = 0
KVA1 090420Z 25008KT 23/M10 A298 RMK A01 T02281102  RH  010%=      5-min Rain = 0
KVA1 090421Z 25007KT 23/M10 A298 RMK A01 T02281103  RH  010%=      5-min Rain = 0
KVA1 090422Z 25007KT 23/M10 A298 RMK A01 T02271104  RH  010%=      5-min Rain = 0
KVA1 090423Z 24008KT 23/M10 A298 RMK A01 T02261104  RH  010%=      5-min Rain = 0
KVA1 090424Z 25008KT 22/M10 A298 RMK A01 T02241104  RH  010%=      5-min Rain = 0
KVA1 090425Z 25008KT 22/M10 A298 RMK A01 T02231104  RH  010%=      5-min Rain = 0
KVA1 090426Z 25008KT 22/M10 A298 RMK A01 T02231104  RH  010%=      5-min Rain = 0
KVA1 090427Z 25007KT 22/M10 A298 RMK A01 T02221104  RH  010%=      5-min Rain = 0
KVA1 090428Z 25008KT 22/M10 A298 RMK A01 T02211104  RH  010%=      5-min Rain = 0
KVA1 090429Z 25008KT 22/M10 A298 RMK A01 T02201104  RH  010%=      5-min Rain = 0
KVA1 090430Z 25009KT 22/M10 A298 RMK A01 T02211103  RH  011%=      5-min Rain = 0
KVA1 090431Z 25008KT 22/M10 A298 RMK A01 T02211103  RH  011%=      5-min Rain = 0
KVA1 090432Z 25008KT 22/M10 A298 RMK A01 T02201103  RH  011%=      5-min Rain = 0
KVA1 090433Z 26008KT 22/M10 A298 RMK A01 T02201104  RH  011%=      5-min Rain = 0
KVA1 090434Z 26007KT 22/M11 A298 RMK A01 T02191105  RH  011%=      5-min Rain = 0
KVA1 090435Z 26008KT 22/M11 A298 RMK A01 T02181105  RH  011%=      5-min Rain = 0
KVA1 090436Z 26007KT 22/M11 A298 RMK A01 T02161106  RH  011%=      5-min Rain = 0
KVA1 090437Z 26008KT 22/M11 A298 RMK A01 T02151106  RH  011%=      5-min Rain = 0
KVA1 090438Z 26008KT 21/M11 A298 RMK A01 T02141106  RH  011%=      5-min Rain = 0
KVA1 090439Z 26008KT 21/M11 A298 RMK A01 T02131106  RH  011%=      5-min Rain = 0
KVA1 090440Z 26008KT 21/M11 A298 RMK A01 T02131106  RH  011%=      5-min Rain = 0
KVA1 090441Z 26007KT 21/M11 A298 RMK A01 T02131106  RH  011%=      5-min Rain = 0
KVA1 090442Z 27007KT 21/M11 A298 RMK A01 T02121106  RH  011%=      5-min Rain = 0
KVA1 090443Z 27007KT 21/M11 A298 RMK A01 T02121106  RH  011%=      5-min Rain = 0
KVA1 090444Z 27007KT 21/M11 A298 RMK A01 T02111106  RH  011%=      5-min Rain = 0
KVA1 090445Z 27007KT 21/M11 A298 RMK A01 T02111106  RH  011%=      5-min Rain = 0
KVA1 090446Z 27007KT 21/M11 A298 RMK A01 T02111106  RH  011%=      5-min Rain = 0
KVA1 090447Z 27007KT 21/M11 A298 RMK A01 T02111106  RH  011%=      5-min Rain = 0
KVA1 090448Z 27007KT 21/M11 A298 RMK A01 T02111106  RH  011%=      5-min Rain = 0
KVA1 090449Z 27007KT 21/M11 A298 RMK A01 T02111107  RH  011%=      5-min Rain = 0
KVA1 090450Z 27007KT 21/M11 A298 RMK A01 T02111107  RH  011%=      5-min Rain = 0
KVA1 090451Z 28008KT 21/M11 A298 RMK A01 T02111106  RH  011%=      5-min Rain = 0
KVA1 090452Z 28009KT 21/M11 A298 RMK A01 T02111107  RH  011%=      5-min Rain = 0
KVA1 090453Z 28011KT 21/M11 A2981 RMK A01 T02111107  RH  011%=      5-min Rain = 0
KVA1 090454Z 27011KT 21/M11 A2981 RMK A01 T02121107  RH  011%=      5-min Rain = 0
KVA1 090455Z 26009KT 22/M11 A2981 RMK A01 T02151106  RH  011%=      5-min Rain = 0
KVA1 090456Z 26010KT 22/M11 A298 RMK A01 T02181106  RH  011%=      5-min Rain = 0
KVA1 090457Z 25009KT 22/M11 A298 RMK A01 T02191107  RH  010%=      5-min Rain = 0
KVA1 090458Z 25009KT 22/M11 A298 RMK A01 T02201106  RH  010%=      5-min Rain = 0
KVA1 090459Z 25009KT 22/M11 A298 RMK A01 T02211107  RH  010%=      5-min Rain = 0

Page generated in 0.0717 seconds.